<?xml version="1.0" encoding="UTF-8" standalone="no" ?>
<gpx xmlns="http://www.topografix.com/GPX/1/1" xmlns:xsi="http://www.w3.org/2001/XMLSchema-instance" xsi:schemaLocation="http://www.topografix.com/GPX/1/1 http://www.topografix.com/GPX/1/1/gpx.xsd" version="1.1" creator="VisuGPX - https://www.visugpx.com">
  <metadata>
    <name>Tracé actuel: 11 SEPT 2020 13:00</name>
    <desc><![CDATA[fond de gabrielle plus le bois de cognus
]]></desc>
  </metadata>
  <trk>
    <name><![CDATA[Tracé actuel: 11 SEPT 2020 13:00]]></name>
    <trkseg>
      <trkpt lat="49.63461" lon="4.98049">
        <ele>115.98</ele>
        <time>2020-09-11T11:00:00Z</time>
      </trkpt>
      <trkpt lat="49.63447" lon="4.98063">
        <ele>114.53</ele>
        <time>2020-09-11T11:00:44Z</time>
      </trkpt>
      <trkpt lat="49.63451" lon="4.98049">
        <ele>114.53</ele>
        <time>2020-09-11T11:01:32Z</time>
      </trkpt>
      <trkpt lat="49.6345" lon="4.98045">
        <ele>114.53</ele>
        <time>2020-09-11T11:01:48Z</time>
      </trkpt>
      <trkpt lat="49.63465" lon="4.9812">
        <ele>114.53</ele>
        <time>2020-09-11T11:02:07Z</time>
      </trkpt>
      <trkpt lat="49.63418" lon="4.9815">
        <ele>45.8</ele>
        <time>2020-09-11T11:03:33Z</time>
      </trkpt>
      <trkpt lat="49.63416" lon="4.9814">
        <ele>43.4</ele>
        <time>2020-09-11T11:03:34Z</time>
      </trkpt>
      <trkpt lat="49.63401" lon="4.98115">
        <ele>32.82</ele>
        <time>2020-09-11T11:03:49Z</time>
      </trkpt>
      <trkpt lat="49.634" lon="4.98113">
        <ele>34.26</ele>
        <time>2020-09-11T11:03:50Z</time>
      </trkpt>
      <trkpt lat="49.63394" lon="4.9811">
        <ele>31.86</ele>
        <time>2020-09-11T11:03:55Z</time>
      </trkpt>
      <trkpt lat="49.63381" lon="4.98105">
        <ele>22.25</ele>
        <time>2020-09-11T11:04:13Z</time>
      </trkpt>
      <trkpt lat="49.6337" lon="4.98089">
        <ele>15.52</ele>
        <time>2020-09-11T11:04:27Z</time>
      </trkpt>
      <trkpt lat="49.63358" lon="4.98075">
        <ele>12.63</ele>
        <time>2020-09-11T11:04:41Z</time>
      </trkpt>
      <trkpt lat="49.63346" lon="4.98057">
        <ele>10.71</ele>
        <time>2020-09-11T11:04:56Z</time>
      </trkpt>
      <trkpt lat="49.63346" lon="4.98056">
        <ele>11.19</ele>
        <time>2020-09-11T11:04:57Z</time>
      </trkpt>
      <trkpt lat="49.63336" lon="4.98027">
        <ele>28.98</ele>
        <time>2020-09-11T11:05:08Z</time>
      </trkpt>
      <trkpt lat="49.63326" lon="4.98004">
        <ele>36.19</ele>
        <time>2020-09-11T11:05:13Z</time>
      </trkpt>
      <trkpt lat="49.63322" lon="4.97994">
        <ele>38.59</ele>
        <time>2020-09-11T11:05:17Z</time>
      </trkpt>
      <trkpt lat="49.63318" lon="4.97971">
        <ele>42.92</ele>
        <time>2020-09-11T11:05:32Z</time>
      </trkpt>
      <trkpt lat="49.63307" lon="4.97968">
        <ele>41.95</ele>
        <time>2020-09-11T11:05:47Z</time>
      </trkpt>
      <trkpt lat="49.63306" lon="4.9797">
        <ele>40.99</ele>
        <time>2020-09-11T11:05:56Z</time>
      </trkpt>
      <trkpt lat="49.63314" lon="4.97964">
        <ele>70.79</ele>
        <time>2020-09-11T11:06:06Z</time>
      </trkpt>
      <trkpt lat="49.63313" lon="4.97968">
        <ele>100.6</ele>
        <time>2020-09-11T11:06:19Z</time>
      </trkpt>
      <trkpt lat="49.63318" lon="4.97965">
        <ele>132.8</ele>
        <time>2020-09-11T11:06:31Z</time>
      </trkpt>
      <trkpt lat="49.63306" lon="4.97973">
        <ele>140.49</ele>
        <time>2020-09-11T11:06:46Z</time>
      </trkpt>
      <trkpt lat="49.63296" lon="4.97977">
        <ele>144.34</ele>
        <time>2020-09-11T11:07:00Z</time>
      </trkpt>
      <trkpt lat="49.63293" lon="4.97979">
        <ele>145.78</ele>
        <time>2020-09-11T11:07:04Z</time>
      </trkpt>
      <trkpt lat="49.63276" lon="4.97981">
        <ele>149.14</ele>
        <time>2020-09-11T11:07:20Z</time>
      </trkpt>
      <trkpt lat="49.63275" lon="4.97982">
        <ele>149.14</ele>
        <time>2020-09-11T11:07:21Z</time>
      </trkpt>
      <trkpt lat="49.63267" lon="4.97983">
        <ele>152.99</ele>
        <time>2020-09-11T11:07:31Z</time>
      </trkpt>
      <trkpt lat="49.6325" lon="4.97991">
        <ele>159.24</ele>
        <time>2020-09-11T11:07:46Z</time>
      </trkpt>
      <trkpt lat="49.63239" lon="4.97997">
        <ele>162.6</ele>
        <time>2020-09-11T11:07:57Z</time>
      </trkpt>
      <trkpt lat="49.63225" lon="4.98007">
        <ele>165.48</ele>
        <time>2020-09-11T11:08:11Z</time>
      </trkpt>
      <trkpt lat="49.63218" lon="4.98011">
        <ele>167.89</ele>
        <time>2020-09-11T11:08:20Z</time>
      </trkpt>
      <trkpt lat="49.63206" lon="4.98019">
        <ele>168.37</ele>
        <time>2020-09-11T11:08:33Z</time>
      </trkpt>
      <trkpt lat="49.63195" lon="4.98028">
        <ele>168.37</ele>
        <time>2020-09-11T11:08:46Z</time>
      </trkpt>
      <trkpt lat="49.6319" lon="4.9803">
        <ele>169.81</ele>
        <time>2020-09-11T11:08:52Z</time>
      </trkpt>
      <trkpt lat="49.63179" lon="4.9804">
        <ele>172.69</ele>
        <time>2020-09-11T11:09:04Z</time>
      </trkpt>
      <trkpt lat="49.6317" lon="4.98046">
        <ele>175.1</ele>
        <time>2020-09-11T11:09:15Z</time>
      </trkpt>
      <trkpt lat="49.63159" lon="4.98055">
        <ele>177.98</ele>
        <time>2020-09-11T11:09:27Z</time>
      </trkpt>
      <trkpt lat="49.63148" lon="4.98064">
        <ele>179.9</ele>
        <time>2020-09-11T11:09:39Z</time>
      </trkpt>
      <trkpt lat="49.63145" lon="4.98064">
        <ele>180.38</ele>
        <time>2020-09-11T11:09:51Z</time>
      </trkpt>
      <trkpt lat="49.6314" lon="4.98067">
        <ele>181.35</ele>
        <time>2020-09-11T11:10:01Z</time>
      </trkpt>
      <trkpt lat="49.63134" lon="4.9807">
        <ele>181.83</ele>
        <time>2020-09-11T11:10:13Z</time>
      </trkpt>
      <trkpt lat="49.63119" lon="4.9808">
        <ele>182.79</ele>
        <time>2020-09-11T11:10:29Z</time>
      </trkpt>
      <trkpt lat="49.63119" lon="4.9808">
        <ele>182.79</ele>
        <time>2020-09-11T11:10:30Z</time>
      </trkpt>
      <trkpt lat="49.63105" lon="4.98093">
        <ele>184.23</ele>
        <time>2020-09-11T11:10:42Z</time>
      </trkpt>
      <trkpt lat="49.63095" lon="4.981">
        <ele>184.71</ele>
        <time>2020-09-11T11:10:52Z</time>
      </trkpt>
      <trkpt lat="49.63091" lon="4.98104">
        <ele>184.71</ele>
        <time>2020-09-11T11:10:57Z</time>
      </trkpt>
      <trkpt lat="49.63082" lon="4.98114">
        <ele>186.15</ele>
        <time>2020-09-11T11:11:07Z</time>
      </trkpt>
      <trkpt lat="49.63072" lon="4.98122">
        <ele>187.59</ele>
        <time>2020-09-11T11:11:17Z</time>
      </trkpt>
      <trkpt lat="49.63063" lon="4.98128">
        <ele>189.52</ele>
        <time>2020-09-11T11:11:27Z</time>
      </trkpt>
      <trkpt lat="49.63051" lon="4.98137">
        <ele>190</ele>
        <time>2020-09-11T11:11:40Z</time>
      </trkpt>
      <trkpt lat="49.63041" lon="4.98146">
        <ele>191.92</ele>
        <time>2020-09-11T11:11:51Z</time>
      </trkpt>
      <trkpt lat="49.63038" lon="4.98148">
        <ele>191.92</ele>
        <time>2020-09-11T11:11:55Z</time>
      </trkpt>
      <trkpt lat="49.63029" lon="4.98153">
        <ele>191.92</ele>
        <time>2020-09-11T11:12:03Z</time>
      </trkpt>
      <trkpt lat="49.63019" lon="4.98157">
        <ele>191.92</ele>
        <time>2020-09-11T11:12:12Z</time>
      </trkpt>
      <trkpt lat="49.63017" lon="4.98156">
        <ele>192.4</ele>
        <time>2020-09-11T11:12:14Z</time>
      </trkpt>
      <trkpt lat="49.63006" lon="4.9816">
        <ele>193.84</ele>
        <time>2020-09-11T11:12:26Z</time>
      </trkpt>
      <trkpt lat="49.62997" lon="4.98161">
        <ele>195.28</ele>
        <time>2020-09-11T11:12:34Z</time>
      </trkpt>
      <trkpt lat="49.62987" lon="4.98162">
        <ele>197.21</ele>
        <time>2020-09-11T11:12:45Z</time>
      </trkpt>
      <trkpt lat="49.6298" lon="4.9817">
        <ele>198.17</ele>
        <time>2020-09-11T11:12:54Z</time>
      </trkpt>
      <trkpt lat="49.6297" lon="4.98178">
        <ele>198.17</ele>
        <time>2020-09-11T11:13:06Z</time>
      </trkpt>
      <trkpt lat="49.62962" lon="4.98183">
        <ele>200.09</ele>
        <time>2020-09-11T11:13:19Z</time>
      </trkpt>
      <trkpt lat="49.62952" lon="4.98185">
        <ele>203.46</ele>
        <time>2020-09-11T11:13:30Z</time>
      </trkpt>
      <trkpt lat="49.62935" lon="4.98191">
        <ele>205.86</ele>
        <time>2020-09-11T11:13:44Z</time>
      </trkpt>
      <trkpt lat="49.62926" lon="4.98198">
        <ele>205.38</ele>
        <time>2020-09-11T11:13:55Z</time>
      </trkpt>
      <trkpt lat="49.62915" lon="4.98202">
        <ele>205.86</ele>
        <time>2020-09-11T11:14:05Z</time>
      </trkpt>
      <trkpt lat="49.62902" lon="4.98206">
        <ele>207.3</ele>
        <time>2020-09-11T11:14:18Z</time>
      </trkpt>
      <trkpt lat="49.62887" lon="4.98214">
        <ele>211.15</ele>
        <time>2020-09-11T11:14:33Z</time>
      </trkpt>
      <trkpt lat="49.6288" lon="4.98218">
        <ele>212.11</ele>
        <time>2020-09-11T11:14:42Z</time>
      </trkpt>
      <trkpt lat="49.62861" lon="4.98228">
        <ele>212.11</ele>
        <time>2020-09-11T11:14:58Z</time>
      </trkpt>
      <trkpt lat="49.62848" lon="4.9823">
        <ele>212.11</ele>
        <time>2020-09-11T11:15:11Z</time>
      </trkpt>
      <trkpt lat="49.62842" lon="4.98231">
        <ele>213.07</ele>
        <time>2020-09-11T11:15:18Z</time>
      </trkpt>
      <trkpt lat="49.62834" lon="4.98232">
        <ele>214.99</ele>
        <time>2020-09-11T11:15:30Z</time>
      </trkpt>
      <trkpt lat="49.62826" lon="4.98234">
        <ele>217.4</ele>
        <time>2020-09-11T11:15:40Z</time>
      </trkpt>
      <trkpt lat="49.62811" lon="4.98238">
        <ele>217.4</ele>
        <time>2020-09-11T11:15:53Z</time>
      </trkpt>
      <trkpt lat="49.62794" lon="4.98243">
        <ele>215.47</ele>
        <time>2020-09-11T11:16:05Z</time>
      </trkpt>
      <trkpt lat="49.6278" lon="4.98249">
        <ele>214.03</ele>
        <time>2020-09-11T11:16:18Z</time>
      </trkpt>
      <trkpt lat="49.62767" lon="4.9825">
        <ele>213.55</ele>
        <time>2020-09-11T11:16:34Z</time>
      </trkpt>
      <trkpt lat="49.62761" lon="4.98251">
        <ele>215.47</ele>
        <time>2020-09-11T11:16:39Z</time>
      </trkpt>
      <trkpt lat="49.62747" lon="4.98259">
        <ele>219.8</ele>
        <time>2020-09-11T11:16:53Z</time>
      </trkpt>
      <trkpt lat="49.6273" lon="4.98271">
        <ele>227.49</ele>
        <time>2020-09-11T11:17:11Z</time>
      </trkpt>
      <trkpt lat="49.62717" lon="4.98282">
        <ele>232.3</ele>
        <time>2020-09-11T11:17:27Z</time>
      </trkpt>
      <trkpt lat="49.62712" lon="4.9829">
        <ele>232.78</ele>
        <time>2020-09-11T11:17:37Z</time>
      </trkpt>
      <trkpt lat="49.62707" lon="4.98294">
        <ele>233.26</ele>
        <time>2020-09-11T11:17:49Z</time>
      </trkpt>
      <trkpt lat="49.62703" lon="4.98299">
        <ele>234.22</ele>
        <time>2020-09-11T11:17:57Z</time>
      </trkpt>
      <trkpt lat="49.62701" lon="4.98301">
        <ele>235.18</ele>
        <time>2020-09-11T11:18:04Z</time>
      </trkpt>
      <trkpt lat="49.62694" lon="4.98307">
        <ele>236.62</ele>
        <time>2020-09-11T11:18:11Z</time>
      </trkpt>
      <trkpt lat="49.62683" lon="4.9832">
        <ele>238.54</ele>
        <time>2020-09-11T11:18:23Z</time>
      </trkpt>
      <trkpt lat="49.62671" lon="4.98333">
        <ele>239.02</ele>
        <time>2020-09-11T11:18:34Z</time>
      </trkpt>
      <trkpt lat="49.62662" lon="4.98341">
        <ele>241.43</ele>
        <time>2020-09-11T11:18:46Z</time>
      </trkpt>
      <trkpt lat="49.62649" lon="4.98357">
        <ele>245.27</ele>
        <time>2020-09-11T11:18:59Z</time>
      </trkpt>
      <trkpt lat="49.62637" lon="4.98368">
        <ele>245.27</ele>
        <time>2020-09-11T11:19:11Z</time>
      </trkpt>
      <trkpt lat="49.62628" lon="4.98378">
        <ele>245.27</ele>
        <time>2020-09-11T11:19:20Z</time>
      </trkpt>
      <trkpt lat="49.62618" lon="4.98392">
        <ele>244.31</ele>
        <time>2020-09-11T11:19:32Z</time>
      </trkpt>
      <trkpt lat="49.62614" lon="4.98398">
        <ele>244.79</ele>
        <time>2020-09-11T11:19:38Z</time>
      </trkpt>
      <trkpt lat="49.62609" lon="4.9841">
        <ele>245.27</ele>
        <time>2020-09-11T11:19:46Z</time>
      </trkpt>
      <trkpt lat="49.62605" lon="4.98419">
        <ele>245.27</ele>
        <time>2020-09-11T11:19:52Z</time>
      </trkpt>
      <trkpt lat="49.62601" lon="4.98432">
        <ele>246.23</ele>
        <time>2020-09-11T11:20:01Z</time>
      </trkpt>
      <trkpt lat="49.62593" lon="4.98448">
        <ele>246.72</ele>
        <time>2020-09-11T11:20:13Z</time>
      </trkpt>
      <trkpt lat="49.62587" lon="4.98461">
        <ele>248.64</ele>
        <time>2020-09-11T11:20:24Z</time>
      </trkpt>
      <trkpt lat="49.62582" lon="4.98475">
        <ele>251.04</ele>
        <time>2020-09-11T11:20:35Z</time>
      </trkpt>
      <trkpt lat="49.62581" lon="4.98477">
        <ele>251.04</ele>
        <time>2020-09-11T11:20:37Z</time>
      </trkpt>
      <trkpt lat="49.62578" lon="4.98484">
        <ele>252</ele>
        <time>2020-09-11T11:20:42Z</time>
      </trkpt>
      <trkpt lat="49.62576" lon="4.98489">
        <ele>252.48</ele>
        <time>2020-09-11T11:20:51Z</time>
      </trkpt>
      <trkpt lat="49.6257" lon="4.98501">
        <ele>253.93</ele>
        <time>2020-09-11T11:21:02Z</time>
      </trkpt>
      <trkpt lat="49.62564" lon="4.98515">
        <ele>254.41</ele>
        <time>2020-09-11T11:21:12Z</time>
      </trkpt>
      <trkpt lat="49.62558" lon="4.98529">
        <ele>256.81</ele>
        <time>2020-09-11T11:21:23Z</time>
      </trkpt>
      <trkpt lat="49.6255" lon="4.98543">
        <ele>256.33</ele>
        <time>2020-09-11T11:21:34Z</time>
      </trkpt>
      <trkpt lat="49.62541" lon="4.98553">
        <ele>257.29</ele>
        <time>2020-09-11T11:21:45Z</time>
      </trkpt>
      <trkpt lat="49.6253" lon="4.98557">
        <ele>257.29</ele>
        <time>2020-09-11T11:21:56Z</time>
      </trkpt>
      <trkpt lat="49.62518" lon="4.98561">
        <ele>258.73</ele>
        <time>2020-09-11T11:22:09Z</time>
      </trkpt>
      <trkpt lat="49.62508" lon="4.98557">
        <ele>259.21</ele>
        <time>2020-09-11T11:22:20Z</time>
      </trkpt>
      <trkpt lat="49.62508" lon="4.98554">
        <ele>259.21</ele>
        <time>2020-09-11T11:22:23Z</time>
      </trkpt>
      <trkpt lat="49.62508" lon="4.98549">
        <ele>259.69</ele>
        <time>2020-09-11T11:22:36Z</time>
      </trkpt>
      <trkpt lat="49.62506" lon="4.9855">
        <ele>259.21</ele>
        <time>2020-09-11T11:22:45Z</time>
      </trkpt>
      <trkpt lat="49.625" lon="4.98555">
        <ele>258.73</ele>
        <time>2020-09-11T11:22:53Z</time>
      </trkpt>
      <trkpt lat="49.62486" lon="4.98545">
        <ele>257.77</ele>
        <time>2020-09-11T11:23:07Z</time>
      </trkpt>
      <trkpt lat="49.62474" lon="4.98533">
        <ele>256.81</ele>
        <time>2020-09-11T11:23:20Z</time>
      </trkpt>
      <trkpt lat="49.62461" lon="4.98525">
        <ele>257.29</ele>
        <time>2020-09-11T11:23:33Z</time>
      </trkpt>
      <trkpt lat="49.62447" lon="4.98516">
        <ele>256.33</ele>
        <time>2020-09-11T11:23:46Z</time>
      </trkpt>
      <trkpt lat="49.62441" lon="4.98513">
        <ele>255.37</ele>
        <time>2020-09-11T11:23:53Z</time>
      </trkpt>
      <trkpt lat="49.6243" lon="4.98501">
        <ele>254.41</ele>
        <time>2020-09-11T11:24:06Z</time>
      </trkpt>
      <trkpt lat="49.62417" lon="4.98493">
        <ele>254.89</ele>
        <time>2020-09-11T11:24:19Z</time>
      </trkpt>
      <trkpt lat="49.62412" lon="4.98487">
        <ele>255.37</ele>
        <time>2020-09-11T11:24:24Z</time>
      </trkpt>
      <trkpt lat="49.62408" lon="4.98485">
        <ele>255.85</ele>
        <time>2020-09-11T11:24:29Z</time>
      </trkpt>
      <trkpt lat="49.62403" lon="4.98482">
        <ele>255.85</ele>
        <time>2020-09-11T11:24:33Z</time>
      </trkpt>
      <trkpt lat="49.62399" lon="4.98478">
        <ele>256.81</ele>
        <time>2020-09-11T11:24:39Z</time>
      </trkpt>
      <trkpt lat="49.62384" lon="4.98468">
        <ele>258.73</ele>
        <time>2020-09-11T11:24:53Z</time>
      </trkpt>
      <trkpt lat="49.62373" lon="4.98462">
        <ele>260.65</ele>
        <time>2020-09-11T11:25:04Z</time>
      </trkpt>
      <trkpt lat="49.62362" lon="4.98456">
        <ele>263.06</ele>
        <time>2020-09-11T11:25:17Z</time>
      </trkpt>
      <trkpt lat="49.62361" lon="4.98455">
        <ele>263.06</ele>
        <time>2020-09-11T11:25:19Z</time>
      </trkpt>
      <trkpt lat="49.62346" lon="4.98446">
        <ele>264.98</ele>
        <time>2020-09-11T11:25:32Z</time>
      </trkpt>
      <trkpt lat="49.62334" lon="4.98436">
        <ele>264.98</ele>
        <time>2020-09-11T11:25:44Z</time>
      </trkpt>
      <trkpt lat="49.6232" lon="4.98425">
        <ele>264.02</ele>
        <time>2020-09-11T11:25:58Z</time>
      </trkpt>
      <trkpt lat="49.62317" lon="4.9842">
        <ele>264.02</ele>
        <time>2020-09-11T11:26:01Z</time>
      </trkpt>
      <trkpt lat="49.62306" lon="4.98405">
        <ele>264.5</ele>
        <time>2020-09-11T11:26:15Z</time>
      </trkpt>
      <trkpt lat="49.62297" lon="4.98391">
        <ele>265.94</ele>
        <time>2020-09-11T11:26:29Z</time>
      </trkpt>
      <trkpt lat="49.62289" lon="4.98376">
        <ele>266.9</ele>
        <time>2020-09-11T11:26:42Z</time>
      </trkpt>
      <trkpt lat="49.62287" lon="4.98374">
        <ele>266.9</ele>
        <time>2020-09-11T11:26:44Z</time>
      </trkpt>
      <trkpt lat="49.62276" lon="4.98355">
        <ele>266.42</ele>
        <time>2020-09-11T11:26:59Z</time>
      </trkpt>
      <trkpt lat="49.62268" lon="4.9834">
        <ele>264.5</ele>
        <time>2020-09-11T11:27:12Z</time>
      </trkpt>
      <trkpt lat="49.62256" lon="4.98331">
        <ele>264.98</ele>
        <time>2020-09-11T11:27:26Z</time>
      </trkpt>
      <trkpt lat="49.62243" lon="4.98321">
        <ele>266.42</ele>
        <time>2020-09-11T11:27:39Z</time>
      </trkpt>
      <trkpt lat="49.62232" lon="4.98315">
        <ele>267.38</ele>
        <time>2020-09-11T11:27:52Z</time>
      </trkpt>
      <trkpt lat="49.62215" lon="4.98305">
        <ele>270.27</ele>
        <time>2020-09-11T11:28:09Z</time>
      </trkpt>
      <trkpt lat="49.62201" lon="4.98298">
        <ele>273.63</ele>
        <time>2020-09-11T11:28:23Z</time>
      </trkpt>
      <trkpt lat="49.62183" lon="4.98293">
        <ele>276.04</ele>
        <time>2020-09-11T11:28:39Z</time>
      </trkpt>
      <trkpt lat="49.6217" lon="4.98291">
        <ele>275.56</ele>
        <time>2020-09-11T11:28:49Z</time>
      </trkpt>
      <trkpt lat="49.62155" lon="4.98289">
        <ele>274.59</ele>
        <time>2020-09-11T11:29:03Z</time>
      </trkpt>
      <trkpt lat="49.62146" lon="4.98288">
        <ele>276.52</ele>
        <time>2020-09-11T11:29:12Z</time>
      </trkpt>
      <trkpt lat="49.6213" lon="4.98279">
        <ele>277</ele>
        <time>2020-09-11T11:29:26Z</time>
      </trkpt>
      <trkpt lat="49.62122" lon="4.9827">
        <ele>277.48</ele>
        <time>2020-09-11T11:29:33Z</time>
      </trkpt>
      <trkpt lat="49.62118" lon="4.98268">
        <ele>277.48</ele>
        <time>2020-09-11T11:29:39Z</time>
      </trkpt>
      <trkpt lat="49.62106" lon="4.98255">
        <ele>276.04</ele>
        <time>2020-09-11T11:29:52Z</time>
      </trkpt>
      <trkpt lat="49.62105" lon="4.98253">
        <ele>276.04</ele>
        <time>2020-09-11T11:29:54Z</time>
      </trkpt>
      <trkpt lat="49.62099" lon="4.98248">
        <ele>276.04</ele>
        <time>2020-09-11T11:29:59Z</time>
      </trkpt>
      <trkpt lat="49.62087" lon="4.98235">
        <ele>276.04</ele>
        <time>2020-09-11T11:30:12Z</time>
      </trkpt>
      <trkpt lat="49.62075" lon="4.98227">
        <ele>276.52</ele>
        <time>2020-09-11T11:30:24Z</time>
      </trkpt>
      <trkpt lat="49.62074" lon="4.98226">
        <ele>276.52</ele>
        <time>2020-09-11T11:30:25Z</time>
      </trkpt>
      <trkpt lat="49.62061" lon="4.98218">
        <ele>277</ele>
        <time>2020-09-11T11:30:37Z</time>
      </trkpt>
      <trkpt lat="49.62048" lon="4.98213">
        <ele>277.48</ele>
        <time>2020-09-11T11:30:49Z</time>
      </trkpt>
      <trkpt lat="49.62035" lon="4.98207">
        <ele>279.88</ele>
        <time>2020-09-11T11:31:01Z</time>
      </trkpt>
      <trkpt lat="49.62022" lon="4.982">
        <ele>281.8</ele>
        <time>2020-09-11T11:31:13Z</time>
      </trkpt>
      <trkpt lat="49.62013" lon="4.98194">
        <ele>283.73</ele>
        <time>2020-09-11T11:31:24Z</time>
      </trkpt>
      <trkpt lat="49.62" lon="4.9819">
        <ele>285.65</ele>
        <time>2020-09-11T11:31:36Z</time>
      </trkpt>
      <trkpt lat="49.61988" lon="4.98185">
        <ele>286.61</ele>
        <time>2020-09-11T11:31:48Z</time>
      </trkpt>
      <trkpt lat="49.61973" lon="4.9818">
        <ele>287.09</ele>
        <time>2020-09-11T11:32:02Z</time>
      </trkpt>
      <trkpt lat="49.61962" lon="4.98176">
        <ele>288.53</ele>
        <time>2020-09-11T11:32:14Z</time>
      </trkpt>
      <trkpt lat="49.61949" lon="4.9817">
        <ele>291.9</ele>
        <time>2020-09-11T11:32:29Z</time>
      </trkpt>
      <trkpt lat="49.61941" lon="4.98168">
        <ele>292.86</ele>
        <time>2020-09-11T11:32:44Z</time>
      </trkpt>
      <trkpt lat="49.61931" lon="4.98162">
        <ele>297.18</ele>
        <time>2020-09-11T11:32:54Z</time>
      </trkpt>
      <trkpt lat="49.61914" lon="4.98156">
        <ele>298.15</ele>
        <time>2020-09-11T11:33:09Z</time>
      </trkpt>
      <trkpt lat="49.61895" lon="4.98157">
        <ele>295.26</ele>
        <time>2020-09-11T11:33:22Z</time>
      </trkpt>
      <trkpt lat="49.61878" lon="4.98154">
        <ele>292.38</ele>
        <time>2020-09-11T11:33:37Z</time>
      </trkpt>
      <trkpt lat="49.61864" lon="4.98161">
        <ele>295.26</ele>
        <time>2020-09-11T11:33:51Z</time>
      </trkpt>
      <trkpt lat="49.61848" lon="4.98168">
        <ele>295.26</ele>
        <time>2020-09-11T11:34:06Z</time>
      </trkpt>
      <trkpt lat="49.61833" lon="4.98177">
        <ele>295.26</ele>
        <time>2020-09-11T11:34:22Z</time>
      </trkpt>
      <trkpt lat="49.61828" lon="4.98179">
        <ele>295.26</ele>
        <time>2020-09-11T11:34:25Z</time>
      </trkpt>
      <trkpt lat="49.61822" lon="4.98183">
        <ele>297.67</ele>
        <time>2020-09-11T11:34:40Z</time>
      </trkpt>
      <trkpt lat="49.61821" lon="4.98184">
        <ele>298.63</ele>
        <time>2020-09-11T11:34:47Z</time>
      </trkpt>
      <trkpt lat="49.61819" lon="4.98193">
        <ele>299.11</ele>
        <time>2020-09-11T11:34:52Z</time>
      </trkpt>
      <trkpt lat="49.61812" lon="4.98211">
        <ele>297.67</ele>
        <time>2020-09-11T11:35:06Z</time>
      </trkpt>
      <trkpt lat="49.61807" lon="4.98231">
        <ele>296.22</ele>
        <time>2020-09-11T11:35:20Z</time>
      </trkpt>
      <trkpt lat="49.618" lon="4.98253">
        <ele>293.34</ele>
        <time>2020-09-11T11:35:37Z</time>
      </trkpt>
      <trkpt lat="49.61797" lon="4.98284">
        <ele>291.42</ele>
        <time>2020-09-11T11:35:56Z</time>
      </trkpt>
      <trkpt lat="49.61792" lon="4.98307">
        <ele>291.42</ele>
        <time>2020-09-11T11:36:12Z</time>
      </trkpt>
      <trkpt lat="49.61787" lon="4.98331">
        <ele>292.86</ele>
        <time>2020-09-11T11:36:28Z</time>
      </trkpt>
      <trkpt lat="49.61785" lon="4.98363">
        <ele>292.86</ele>
        <time>2020-09-11T11:36:47Z</time>
      </trkpt>
      <trkpt lat="49.61779" lon="4.9839">
        <ele>293.34</ele>
        <time>2020-09-11T11:37:05Z</time>
      </trkpt>
      <trkpt lat="49.6177" lon="4.9841">
        <ele>296.7</ele>
        <time>2020-09-11T11:37:19Z</time>
      </trkpt>
      <trkpt lat="49.61766" lon="4.98434">
        <ele>298.63</ele>
        <time>2020-09-11T11:37:34Z</time>
      </trkpt>
      <trkpt lat="49.6176" lon="4.98461">
        <ele>299.11</ele>
        <time>2020-09-11T11:37:51Z</time>
      </trkpt>
      <trkpt lat="49.61754" lon="4.9848">
        <ele>298.63</ele>
        <time>2020-09-11T11:38:05Z</time>
      </trkpt>
      <trkpt lat="49.6175" lon="4.98506">
        <ele>299.11</ele>
        <time>2020-09-11T11:38:21Z</time>
      </trkpt>
      <trkpt lat="49.61746" lon="4.98531">
        <ele>298.63</ele>
        <time>2020-09-11T11:38:35Z</time>
      </trkpt>
      <trkpt lat="49.6174" lon="4.98554">
        <ele>298.15</ele>
        <time>2020-09-11T11:38:51Z</time>
      </trkpt>
      <trkpt lat="49.61737" lon="4.98572">
        <ele>298.15</ele>
        <time>2020-09-11T11:39:08Z</time>
      </trkpt>
      <trkpt lat="49.61734" lon="4.98602">
        <ele>297.67</ele>
        <time>2020-09-11T11:39:24Z</time>
      </trkpt>
      <trkpt lat="49.6173" lon="4.98631">
        <ele>297.67</ele>
        <time>2020-09-11T11:39:39Z</time>
      </trkpt>
      <trkpt lat="49.61723" lon="4.98656">
        <ele>299.11</ele>
        <time>2020-09-11T11:39:56Z</time>
      </trkpt>
      <trkpt lat="49.61718" lon="4.98678">
        <ele>300.07</ele>
        <time>2020-09-11T11:40:12Z</time>
      </trkpt>
      <trkpt lat="49.61708" lon="4.98697">
        <ele>300.55</ele>
        <time>2020-09-11T11:40:27Z</time>
      </trkpt>
      <trkpt lat="49.617" lon="4.98725">
        <ele>300.07</ele>
        <time>2020-09-11T11:40:44Z</time>
      </trkpt>
      <trkpt lat="49.61686" lon="4.98746">
        <ele>297.67</ele>
        <time>2020-09-11T11:41:02Z</time>
      </trkpt>
      <trkpt lat="49.61674" lon="4.98768">
        <ele>296.22</ele>
        <time>2020-09-11T11:41:19Z</time>
      </trkpt>
      <trkpt lat="49.61667" lon="4.98783">
        <ele>297.67</ele>
        <time>2020-09-11T11:41:30Z</time>
      </trkpt>
      <trkpt lat="49.61658" lon="4.98805">
        <ele>297.67</ele>
        <time>2020-09-11T11:41:46Z</time>
      </trkpt>
      <trkpt lat="49.61647" lon="4.98822">
        <ele>296.22</ele>
        <time>2020-09-11T11:42:02Z</time>
      </trkpt>
      <trkpt lat="49.61638" lon="4.98845">
        <ele>294.78</ele>
        <time>2020-09-11T11:42:18Z</time>
      </trkpt>
      <trkpt lat="49.61626" lon="4.98863">
        <ele>295.74</ele>
        <time>2020-09-11T11:42:33Z</time>
      </trkpt>
      <trkpt lat="49.61616" lon="4.9886">
        <ele>297.67</ele>
        <time>2020-09-11T11:42:50Z</time>
      </trkpt>
      <trkpt lat="49.61608" lon="4.98855">
        <ele>299.59</ele>
        <time>2020-09-11T11:43:04Z</time>
      </trkpt>
      <trkpt lat="49.61597" lon="4.98848">
        <ele>300.07</ele>
        <time>2020-09-11T11:43:18Z</time>
      </trkpt>
      <trkpt lat="49.61581" lon="4.9884">
        <ele>302.47</ele>
        <time>2020-09-11T11:43:32Z</time>
      </trkpt>
      <trkpt lat="49.61575" lon="4.98839">
        <ele>303.43</ele>
        <time>2020-09-11T11:43:36Z</time>
      </trkpt>
      <trkpt lat="49.61561" lon="4.98826">
        <ele>306.32</ele>
        <time>2020-09-11T11:43:51Z</time>
      </trkpt>
      <trkpt lat="49.61555" lon="4.98818">
        <ele>307.28</ele>
        <time>2020-09-11T11:43:56Z</time>
      </trkpt>
      <trkpt lat="49.61541" lon="4.98808">
        <ele>307.28</ele>
        <time>2020-09-11T11:44:10Z</time>
      </trkpt>
      <trkpt lat="49.61526" lon="4.98804">
        <ele>307.76</ele>
        <time>2020-09-11T11:44:24Z</time>
      </trkpt>
      <trkpt lat="49.61514" lon="4.988">
        <ele>310.16</ele>
        <time>2020-09-11T11:44:37Z</time>
      </trkpt>
      <trkpt lat="49.61498" lon="4.98794">
        <ele>311.6</ele>
        <time>2020-09-11T11:44:52Z</time>
      </trkpt>
      <trkpt lat="49.61487" lon="4.98796">
        <ele>311.12</ele>
        <time>2020-09-11T11:45:04Z</time>
      </trkpt>
      <trkpt lat="49.6147" lon="4.98801">
        <ele>311.12</ele>
        <time>2020-09-11T11:45:17Z</time>
      </trkpt>
      <trkpt lat="49.61461" lon="4.988">
        <ele>310.64</ele>
        <time>2020-09-11T11:45:33Z</time>
      </trkpt>
      <trkpt lat="49.61454" lon="4.98796">
        <ele>310.16</ele>
        <time>2020-09-11T11:45:41Z</time>
      </trkpt>
      <trkpt lat="49.61444" lon="4.9879">
        <ele>311.12</ele>
        <time>2020-09-11T11:45:56Z</time>
      </trkpt>
      <trkpt lat="49.61433" lon="4.98777">
        <ele>313.05</ele>
        <time>2020-09-11T11:46:11Z</time>
      </trkpt>
      <trkpt lat="49.61425" lon="4.98762">
        <ele>314.97</ele>
        <time>2020-09-11T11:46:28Z</time>
      </trkpt>
      <trkpt lat="49.61413" lon="4.9874">
        <ele>314.01</ele>
        <time>2020-09-11T11:46:45Z</time>
      </trkpt>
      <trkpt lat="49.61401" lon="4.98719">
        <ele>313.53</ele>
        <time>2020-09-11T11:46:59Z</time>
      </trkpt>
      <trkpt lat="49.61397" lon="4.98713">
        <ele>313.53</ele>
        <time>2020-09-11T11:47:13Z</time>
      </trkpt>
      <trkpt lat="49.61391" lon="4.98702">
        <ele>312.09</ele>
        <time>2020-09-11T11:47:27Z</time>
      </trkpt>
      <trkpt lat="49.6138" lon="4.98686">
        <ele>307.28</ele>
        <time>2020-09-11T11:47:44Z</time>
      </trkpt>
      <trkpt lat="49.61378" lon="4.98674">
        <ele>307.76</ele>
        <time>2020-09-11T11:47:57Z</time>
      </trkpt>
      <trkpt lat="49.61372" lon="4.98661">
        <ele>307.76</ele>
        <time>2020-09-11T11:48:14Z</time>
      </trkpt>
      <trkpt lat="49.6136" lon="4.9864">
        <ele>306.8</ele>
        <time>2020-09-11T11:48:30Z</time>
      </trkpt>
      <trkpt lat="49.6135" lon="4.98612">
        <ele>304.88</ele>
        <time>2020-09-11T11:48:45Z</time>
      </trkpt>
      <trkpt lat="49.61342" lon="4.98593">
        <ele>306.8</ele>
        <time>2020-09-11T11:49:05Z</time>
      </trkpt>
      <trkpt lat="49.61323" lon="4.98563">
        <ele>305.36</ele>
        <time>2020-09-11T11:49:22Z</time>
      </trkpt>
      <trkpt lat="49.61303" lon="4.98531">
        <ele>304.88</ele>
        <time>2020-09-11T11:49:39Z</time>
      </trkpt>
      <trkpt lat="49.61291" lon="4.98511">
        <ele>304.88</ele>
        <time>2020-09-11T11:49:54Z</time>
      </trkpt>
      <trkpt lat="49.61276" lon="4.98491">
        <ele>304.88</ele>
        <time>2020-09-11T11:50:10Z</time>
      </trkpt>
      <trkpt lat="49.61265" lon="4.98473">
        <ele>304.88</ele>
        <time>2020-09-11T11:50:27Z</time>
      </trkpt>
      <trkpt lat="49.61253" lon="4.98454">
        <ele>306.32</ele>
        <time>2020-09-11T11:50:42Z</time>
      </trkpt>
      <trkpt lat="49.61247" lon="4.98443">
        <ele>308.24</ele>
        <time>2020-09-11T11:51:00Z</time>
      </trkpt>
      <trkpt lat="49.61237" lon="4.9843">
        <ele>310.64</ele>
        <time>2020-09-11T11:51:14Z</time>
      </trkpt>
      <trkpt lat="49.61224" lon="4.98413">
        <ele>311.6</ele>
        <time>2020-09-11T11:51:29Z</time>
      </trkpt>
      <trkpt lat="49.61209" lon="4.98394">
        <ele>312.09</ele>
        <time>2020-09-11T11:51:46Z</time>
      </trkpt>
      <trkpt lat="49.61197" lon="4.98378">
        <ele>312.09</ele>
        <time>2020-09-11T11:52:00Z</time>
      </trkpt>
      <trkpt lat="49.61185" lon="4.98363">
        <ele>312.57</ele>
        <time>2020-09-11T11:52:14Z</time>
      </trkpt>
      <trkpt lat="49.61174" lon="4.98343">
        <ele>312.57</ele>
        <time>2020-09-11T11:52:30Z</time>
      </trkpt>
      <trkpt lat="49.61163" lon="4.98328">
        <ele>310.16</ele>
        <time>2020-09-11T11:52:42Z</time>
      </trkpt>
      <trkpt lat="49.61149" lon="4.98308">
        <ele>307.28</ele>
        <time>2020-09-11T11:52:59Z</time>
      </trkpt>
      <trkpt lat="49.61141" lon="4.98293">
        <ele>306.32</ele>
        <time>2020-09-11T11:53:11Z</time>
      </trkpt>
      <trkpt lat="49.61129" lon="4.98267">
        <ele>305.36</ele>
        <time>2020-09-11T11:53:28Z</time>
      </trkpt>
      <trkpt lat="49.61119" lon="4.98248">
        <ele>306.8</ele>
        <time>2020-09-11T11:53:44Z</time>
      </trkpt>
      <trkpt lat="49.61107" lon="4.98234">
        <ele>306.32</ele>
        <time>2020-09-11T11:53:58Z</time>
      </trkpt>
      <trkpt lat="49.61105" lon="4.98231">
        <ele>306.32</ele>
        <time>2020-09-11T11:54:00Z</time>
      </trkpt>
      <trkpt lat="49.61094" lon="4.98207">
        <ele>309.2</ele>
        <time>2020-09-11T11:54:16Z</time>
      </trkpt>
      <trkpt lat="49.61083" lon="4.98186">
        <ele>311.12</ele>
        <time>2020-09-11T11:54:34Z</time>
      </trkpt>
      <trkpt lat="49.61072" lon="4.98167">
        <ele>314.01</ele>
        <time>2020-09-11T11:54:51Z</time>
      </trkpt>
      <trkpt lat="49.61066" lon="4.98154">
        <ele>315.45</ele>
        <time>2020-09-11T11:55:06Z</time>
      </trkpt>
      <trkpt lat="49.61049" lon="4.9814">
        <ele>317.85</ele>
        <time>2020-09-11T11:55:22Z</time>
      </trkpt>
      <trkpt lat="49.61035" lon="4.98128">
        <ele>317.85</ele>
        <time>2020-09-11T11:55:37Z</time>
      </trkpt>
      <trkpt lat="49.61025" lon="4.98119">
        <ele>317.37</ele>
        <time>2020-09-11T11:55:55Z</time>
      </trkpt>
      <trkpt lat="49.61012" lon="4.98122">
        <ele>318.33</ele>
        <time>2020-09-11T11:56:10Z</time>
      </trkpt>
      <trkpt lat="49.61001" lon="4.98129">
        <ele>317.85</ele>
        <time>2020-09-11T11:56:25Z</time>
      </trkpt>
      <trkpt lat="49.60986" lon="4.9814">
        <ele>317.85</ele>
        <time>2020-09-11T11:56:40Z</time>
      </trkpt>
      <trkpt lat="49.60976" lon="4.98153">
        <ele>316.89</ele>
        <time>2020-09-11T11:56:56Z</time>
      </trkpt>
      <trkpt lat="49.60967" lon="4.98166">
        <ele>315.93</ele>
        <time>2020-09-11T11:57:12Z</time>
      </trkpt>
      <trkpt lat="49.60956" lon="4.98191">
        <ele>314.49</ele>
        <time>2020-09-11T11:57:27Z</time>
      </trkpt>
      <trkpt lat="49.6094" lon="4.98214">
        <ele>311.6</ele>
        <time>2020-09-11T11:57:44Z</time>
      </trkpt>
      <trkpt lat="49.60931" lon="4.9823">
        <ele>310.64</ele>
        <time>2020-09-11T11:58:04Z</time>
      </trkpt>
      <trkpt lat="49.60925" lon="4.98252">
        <ele>309.2</ele>
        <time>2020-09-11T11:58:16Z</time>
      </trkpt>
      <trkpt lat="49.60908" lon="4.98282">
        <ele>306.32</ele>
        <time>2020-09-11T11:58:35Z</time>
      </trkpt>
      <trkpt lat="49.60905" lon="4.98302">
        <ele>305.84</ele>
        <time>2020-09-11T11:58:47Z</time>
      </trkpt>
      <trkpt lat="49.60891" lon="4.98321">
        <ele>303.43</ele>
        <time>2020-09-11T11:59:03Z</time>
      </trkpt>
      <trkpt lat="49.60887" lon="4.98341">
        <ele>302.95</ele>
        <time>2020-09-11T11:59:19Z</time>
      </trkpt>
      <trkpt lat="49.60881" lon="4.98366">
        <ele>302.47</ele>
        <time>2020-09-11T11:59:33Z</time>
      </trkpt>
      <trkpt lat="49.60879" lon="4.9837">
        <ele>302.47</ele>
        <time>2020-09-11T11:59:35Z</time>
      </trkpt>
      <trkpt lat="49.6087" lon="4.9839">
        <ele>301.99</ele>
        <time>2020-09-11T11:59:48Z</time>
      </trkpt>
      <trkpt lat="49.60862" lon="4.98413">
        <ele>301.51</ele>
        <time>2020-09-11T12:00:04Z</time>
      </trkpt>
      <trkpt lat="49.60859" lon="4.98419">
        <ele>301.03</ele>
        <time>2020-09-11T12:00:08Z</time>
      </trkpt>
      <trkpt lat="49.60846" lon="4.98438">
        <ele>298.15</ele>
        <time>2020-09-11T12:00:24Z</time>
      </trkpt>
      <trkpt lat="49.60837" lon="4.98455">
        <ele>298.63</ele>
        <time>2020-09-11T12:00:38Z</time>
      </trkpt>
      <trkpt lat="49.60829" lon="4.98474">
        <ele>302.47</ele>
        <time>2020-09-11T12:00:54Z</time>
      </trkpt>
      <trkpt lat="49.6082" lon="4.98501">
        <ele>300.55</ele>
        <time>2020-09-11T12:01:11Z</time>
      </trkpt>
      <trkpt lat="49.60816" lon="4.98514">
        <ele>301.99</ele>
        <time>2020-09-11T12:01:26Z</time>
      </trkpt>
      <trkpt lat="49.60807" lon="4.9853">
        <ele>303.43</ele>
        <time>2020-09-11T12:01:42Z</time>
      </trkpt>
      <trkpt lat="49.60799" lon="4.98544">
        <ele>304.39</ele>
        <time>2020-09-11T12:01:53Z</time>
      </trkpt>
      <trkpt lat="49.60788" lon="4.98563">
        <ele>308.24</ele>
        <time>2020-09-11T12:02:09Z</time>
      </trkpt>
      <trkpt lat="49.60778" lon="4.98584">
        <ele>310.64</ele>
        <time>2020-09-11T12:02:26Z</time>
      </trkpt>
      <trkpt lat="49.60767" lon="4.98612">
        <ele>312.09</ele>
        <time>2020-09-11T12:02:45Z</time>
      </trkpt>
      <trkpt lat="49.60754" lon="4.98641">
        <ele>312.09</ele>
        <time>2020-09-11T12:02:58Z</time>
      </trkpt>
      <trkpt lat="49.60743" lon="4.98658">
        <ele>312.57</ele>
        <time>2020-09-11T12:03:11Z</time>
      </trkpt>
      <trkpt lat="49.60734" lon="4.98676">
        <ele>313.05</ele>
        <time>2020-09-11T12:03:26Z</time>
      </trkpt>
      <trkpt lat="49.60728" lon="4.98696">
        <ele>312.57</ele>
        <time>2020-09-11T12:03:38Z</time>
      </trkpt>
      <trkpt lat="49.60723" lon="4.98714">
        <ele>311.6</ele>
        <time>2020-09-11T12:03:54Z</time>
      </trkpt>
      <trkpt lat="49.60717" lon="4.98731">
        <ele>310.64</ele>
        <time>2020-09-11T12:04:06Z</time>
      </trkpt>
      <trkpt lat="49.60715" lon="4.98738">
        <ele>310.64</ele>
        <time>2020-09-11T12:04:11Z</time>
      </trkpt>
      <trkpt lat="49.60704" lon="4.98765">
        <ele>310.16</ele>
        <time>2020-09-11T12:04:28Z</time>
      </trkpt>
      <trkpt lat="49.60692" lon="4.9878">
        <ele>310.64</ele>
        <time>2020-09-11T12:04:44Z</time>
      </trkpt>
      <trkpt lat="49.6068" lon="4.98801">
        <ele>310.64</ele>
        <time>2020-09-11T12:05:00Z</time>
      </trkpt>
      <trkpt lat="49.60674" lon="4.98814">
        <ele>309.68</ele>
        <time>2020-09-11T12:05:14Z</time>
      </trkpt>
      <trkpt lat="49.60659" lon="4.98838">
        <ele>307.76</ele>
        <time>2020-09-11T12:05:31Z</time>
      </trkpt>
      <trkpt lat="49.60648" lon="4.9886">
        <ele>307.76</ele>
        <time>2020-09-11T12:05:46Z</time>
      </trkpt>
      <trkpt lat="49.60636" lon="4.98891">
        <ele>306.8</ele>
        <time>2020-09-11T12:06:03Z</time>
      </trkpt>
      <trkpt lat="49.60626" lon="4.98898">
        <ele>309.2</ele>
        <time>2020-09-11T12:06:18Z</time>
      </trkpt>
      <trkpt lat="49.60605" lon="4.98904">
        <ele>313.05</ele>
        <time>2020-09-11T12:06:36Z</time>
      </trkpt>
      <trkpt lat="49.60582" lon="4.98907">
        <ele>316.41</ele>
        <time>2020-09-11T12:06:52Z</time>
      </trkpt>
      <trkpt lat="49.60567" lon="4.98901">
        <ele>318.81</ele>
        <time>2020-09-11T12:07:07Z</time>
      </trkpt>
      <trkpt lat="49.60556" lon="4.98901">
        <ele>318.33</ele>
        <time>2020-09-11T12:07:21Z</time>
      </trkpt>
      <trkpt lat="49.60535" lon="4.98892">
        <ele>321.22</ele>
        <time>2020-09-11T12:07:37Z</time>
      </trkpt>
      <trkpt lat="49.60517" lon="4.98884">
        <ele>322.66</ele>
        <time>2020-09-11T12:07:51Z</time>
      </trkpt>
      <trkpt lat="49.60503" lon="4.98877">
        <ele>324.58</ele>
        <time>2020-09-11T12:08:06Z</time>
      </trkpt>
      <trkpt lat="49.60489" lon="4.98866">
        <ele>324.58</ele>
        <time>2020-09-11T12:08:20Z</time>
      </trkpt>
      <trkpt lat="49.6047" lon="4.98858">
        <ele>321.7</ele>
        <time>2020-09-11T12:08:36Z</time>
      </trkpt>
      <trkpt lat="49.60453" lon="4.98839">
        <ele>324.58</ele>
        <time>2020-09-11T12:08:52Z</time>
      </trkpt>
      <trkpt lat="49.6044" lon="4.98833">
        <ele>325.06</ele>
        <time>2020-09-11T12:09:07Z</time>
      </trkpt>
      <trkpt lat="49.60424" lon="4.98825">
        <ele>326.02</ele>
        <time>2020-09-11T12:09:20Z</time>
      </trkpt>
      <trkpt lat="49.60408" lon="4.98823">
        <ele>325.06</ele>
        <time>2020-09-11T12:09:36Z</time>
      </trkpt>
      <trkpt lat="49.60393" lon="4.98812">
        <ele>325.54</ele>
        <time>2020-09-11T12:09:50Z</time>
      </trkpt>
      <trkpt lat="49.60379" lon="4.98808">
        <ele>326.02</ele>
        <time>2020-09-11T12:10:07Z</time>
      </trkpt>
      <trkpt lat="49.60379" lon="4.98808">
        <ele>326.02</ele>
        <time>2020-09-11T12:10:08Z</time>
      </trkpt>
      <trkpt lat="49.60367" lon="4.98805">
        <ele>326.99</ele>
        <time>2020-09-11T12:10:22Z</time>
      </trkpt>
      <trkpt lat="49.60352" lon="4.98795">
        <ele>327.47</ele>
        <time>2020-09-11T12:10:37Z</time>
      </trkpt>
      <trkpt lat="49.60337" lon="4.98789">
        <ele>324.58</ele>
        <time>2020-09-11T12:10:50Z</time>
      </trkpt>
      <trkpt lat="49.60323" lon="4.98783">
        <ele>321.22</ele>
        <time>2020-09-11T12:11:06Z</time>
      </trkpt>
      <trkpt lat="49.60317" lon="4.98781">
        <ele>320.74</ele>
        <time>2020-09-11T12:11:11Z</time>
      </trkpt>
      <trkpt lat="49.60313" lon="4.98779">
        <ele>320.26</ele>
        <time>2020-09-11T12:11:15Z</time>
      </trkpt>
      <trkpt lat="49.603" lon="4.98772">
        <ele>318.33</ele>
        <time>2020-09-11T12:11:29Z</time>
      </trkpt>
      <trkpt lat="49.60286" lon="4.98764">
        <ele>320.74</ele>
        <time>2020-09-11T12:11:41Z</time>
      </trkpt>
      <trkpt lat="49.60272" lon="4.9876">
        <ele>322.18</ele>
        <time>2020-09-11T12:11:55Z</time>
      </trkpt>
      <trkpt lat="49.60255" lon="4.98765">
        <ele>320.74</ele>
        <time>2020-09-11T12:12:10Z</time>
      </trkpt>
      <trkpt lat="49.60236" lon="4.98754">
        <ele>317.37</ele>
        <time>2020-09-11T12:12:26Z</time>
      </trkpt>
      <trkpt lat="49.60226" lon="4.98746">
        <ele>314.97</ele>
        <time>2020-09-11T12:12:34Z</time>
      </trkpt>
      <trkpt lat="49.60207" lon="4.98742">
        <ele>314.49</ele>
        <time>2020-09-11T12:12:51Z</time>
      </trkpt>
      <trkpt lat="49.60192" lon="4.98733">
        <ele>315.45</ele>
        <time>2020-09-11T12:13:05Z</time>
      </trkpt>
      <trkpt lat="49.60186" lon="4.98734">
        <ele>314.01</ele>
        <time>2020-09-11T12:13:15Z</time>
      </trkpt>
      <trkpt lat="49.60175" lon="4.98719">
        <ele>315.45</ele>
        <time>2020-09-11T12:13:32Z</time>
      </trkpt>
      <trkpt lat="49.60173" lon="4.98717">
        <ele>315.45</ele>
        <time>2020-09-11T12:13:35Z</time>
      </trkpt>
      <trkpt lat="49.60159" lon="4.987">
        <ele>316.41</ele>
        <time>2020-09-11T12:13:53Z</time>
      </trkpt>
      <trkpt lat="49.60147" lon="4.98686">
        <ele>317.37</ele>
        <time>2020-09-11T12:14:08Z</time>
      </trkpt>
      <trkpt lat="49.60139" lon="4.98672">
        <ele>320.26</ele>
        <time>2020-09-11T12:14:22Z</time>
      </trkpt>
      <trkpt lat="49.60132" lon="4.98657">
        <ele>321.22</ele>
        <time>2020-09-11T12:14:34Z</time>
      </trkpt>
      <trkpt lat="49.6013" lon="4.98653">
        <ele>321.22</ele>
        <time>2020-09-11T12:14:36Z</time>
      </trkpt>
      <trkpt lat="49.60116" lon="4.9864">
        <ele>320.74</ele>
        <time>2020-09-11T12:14:50Z</time>
      </trkpt>
      <trkpt lat="49.60111" lon="4.9863">
        <ele>321.22</ele>
        <time>2020-09-11T12:14:56Z</time>
      </trkpt>
      <trkpt lat="49.60101" lon="4.98617">
        <ele>323.62</ele>
        <time>2020-09-11T12:15:11Z</time>
      </trkpt>
      <trkpt lat="49.60081" lon="4.98611">
        <ele>321.7</ele>
        <time>2020-09-11T12:15:27Z</time>
      </trkpt>
      <trkpt lat="49.60071" lon="4.98615">
        <ele>319.78</ele>
        <time>2020-09-11T12:15:39Z</time>
      </trkpt>
      <trkpt lat="49.60063" lon="4.98625">
        <ele>319.78</ele>
        <time>2020-09-11T12:15:49Z</time>
      </trkpt>
      <trkpt lat="49.60058" lon="4.98637">
        <ele>319.78</ele>
        <time>2020-09-11T12:16:05Z</time>
      </trkpt>
      <trkpt lat="49.60054" lon="4.98653">
        <ele>320.26</ele>
        <time>2020-09-11T12:16:21Z</time>
      </trkpt>
      <trkpt lat="49.60046" lon="4.98679">
        <ele>321.22</ele>
        <time>2020-09-11T12:16:37Z</time>
      </trkpt>
      <trkpt lat="49.60039" lon="4.98703">
        <ele>322.18</ele>
        <time>2020-09-11T12:16:53Z</time>
      </trkpt>
      <trkpt lat="49.6003" lon="4.98729">
        <ele>322.66</ele>
        <time>2020-09-11T12:17:08Z</time>
      </trkpt>
      <trkpt lat="49.6002" lon="4.98745">
        <ele>320.26</ele>
        <time>2020-09-11T12:17:25Z</time>
      </trkpt>
      <trkpt lat="49.60015" lon="4.98756">
        <ele>316.89</ele>
        <time>2020-09-11T12:17:38Z</time>
      </trkpt>
      <trkpt lat="49.60012" lon="4.98763">
        <ele>315.45</ele>
        <time>2020-09-11T12:17:47Z</time>
      </trkpt>
      <trkpt lat="49.6" lon="4.98785">
        <ele>314.49</ele>
        <time>2020-09-11T12:18:05Z</time>
      </trkpt>
      <trkpt lat="49.59984" lon="4.98807">
        <ele>313.53</ele>
        <time>2020-09-11T12:18:21Z</time>
      </trkpt>
      <trkpt lat="49.59975" lon="4.98826">
        <ele>313.05</ele>
        <time>2020-09-11T12:18:35Z</time>
      </trkpt>
      <trkpt lat="49.59966" lon="4.98848">
        <ele>311.6</ele>
        <time>2020-09-11T12:18:50Z</time>
      </trkpt>
      <trkpt lat="49.59961" lon="4.98875">
        <ele>314.01</ele>
        <time>2020-09-11T12:19:08Z</time>
      </trkpt>
      <trkpt lat="49.59947" lon="4.98897">
        <ele>317.85</ele>
        <time>2020-09-11T12:19:25Z</time>
      </trkpt>
      <trkpt lat="49.59932" lon="4.98917">
        <ele>319.3</ele>
        <time>2020-09-11T12:19:42Z</time>
      </trkpt>
      <trkpt lat="49.5992" lon="4.9893">
        <ele>321.7</ele>
        <time>2020-09-11T12:20:00Z</time>
      </trkpt>
      <trkpt lat="49.59898" lon="4.98953">
        <ele>325.06</ele>
        <time>2020-09-11T12:20:19Z</time>
      </trkpt>
      <trkpt lat="49.59882" lon="4.98973">
        <ele>327.95</ele>
        <time>2020-09-11T12:20:36Z</time>
      </trkpt>
      <trkpt lat="49.59862" lon="4.98996">
        <ele>326.99</ele>
        <time>2020-09-11T12:20:54Z</time>
      </trkpt>
      <trkpt lat="49.59848" lon="4.99011">
        <ele>322.18</ele>
        <time>2020-09-11T12:21:10Z</time>
      </trkpt>
      <trkpt lat="49.59832" lon="4.99021">
        <ele>316.41</ele>
        <time>2020-09-11T12:21:28Z</time>
      </trkpt>
      <trkpt lat="49.59819" lon="4.99037">
        <ele>313.53</ele>
        <time>2020-09-11T12:21:44Z</time>
      </trkpt>
      <trkpt lat="49.59801" lon="4.99051">
        <ele>312.09</ele>
        <time>2020-09-11T12:22:00Z</time>
      </trkpt>
      <trkpt lat="49.59782" lon="4.99068">
        <ele>309.68</ele>
        <time>2020-09-11T12:22:17Z</time>
      </trkpt>
      <trkpt lat="49.59768" lon="4.9908">
        <ele>309.2</ele>
        <time>2020-09-11T12:22:33Z</time>
      </trkpt>
      <trkpt lat="49.59752" lon="4.99094">
        <ele>308.24</ele>
        <time>2020-09-11T12:22:47Z</time>
      </trkpt>
      <trkpt lat="49.59739" lon="4.99103">
        <ele>308.24</ele>
        <time>2020-09-11T12:23:01Z</time>
      </trkpt>
      <trkpt lat="49.59729" lon="4.99112">
        <ele>308.72</ele>
        <time>2020-09-11T12:23:16Z</time>
      </trkpt>
      <trkpt lat="49.5972" lon="4.99117">
        <ele>309.2</ele>
        <time>2020-09-11T12:23:31Z</time>
      </trkpt>
      <trkpt lat="49.59711" lon="4.99124">
        <ele>309.68</ele>
        <time>2020-09-11T12:23:46Z</time>
      </trkpt>
      <trkpt lat="49.59701" lon="4.9913">
        <ele>311.12</ele>
        <time>2020-09-11T12:24:01Z</time>
      </trkpt>
      <trkpt lat="49.59686" lon="4.9914">
        <ele>314.49</ele>
        <time>2020-09-11T12:24:16Z</time>
      </trkpt>
      <trkpt lat="49.59683" lon="4.99142">
        <ele>314.49</ele>
        <time>2020-09-11T12:24:20Z</time>
      </trkpt>
      <trkpt lat="49.59666" lon="4.99154">
        <ele>314.97</ele>
        <time>2020-09-11T12:24:33Z</time>
      </trkpt>
      <trkpt lat="49.59649" lon="4.99164">
        <ele>316.89</ele>
        <time>2020-09-11T12:24:46Z</time>
      </trkpt>
      <trkpt lat="49.5963" lon="4.9917">
        <ele>319.3</ele>
        <time>2020-09-11T12:24:58Z</time>
      </trkpt>
      <trkpt lat="49.59618" lon="4.99178">
        <ele>319.78</ele>
        <time>2020-09-11T12:25:05Z</time>
      </trkpt>
      <trkpt lat="49.59599" lon="4.99194">
        <ele>320.74</ele>
        <time>2020-09-11T12:25:18Z</time>
      </trkpt>
      <trkpt lat="49.59578" lon="4.99207">
        <ele>323.62</ele>
        <time>2020-09-11T12:25:33Z</time>
      </trkpt>
      <trkpt lat="49.59561" lon="4.99214">
        <ele>326.99</ele>
        <time>2020-09-11T12:25:47Z</time>
      </trkpt>
      <trkpt lat="49.59551" lon="4.99219">
        <ele>329.39</ele>
        <time>2020-09-11T12:26:00Z</time>
      </trkpt>
      <trkpt lat="49.5953" lon="4.99225">
        <ele>334.68</ele>
        <time>2020-09-11T12:26:16Z</time>
      </trkpt>
      <trkpt lat="49.59519" lon="4.99232">
        <ele>337.56</ele>
        <time>2020-09-11T12:26:25Z</time>
      </trkpt>
      <trkpt lat="49.59515" lon="4.99234">
        <ele>338.52</ele>
        <time>2020-09-11T12:26:28Z</time>
      </trkpt>
      <trkpt lat="49.59502" lon="4.99243">
        <ele>341.89</ele>
        <time>2020-09-11T12:26:40Z</time>
      </trkpt>
      <trkpt lat="49.595" lon="4.99246">
        <ele>341.89</ele>
        <time>2020-09-11T12:26:42Z</time>
      </trkpt>
      <trkpt lat="49.59483" lon="4.99259">
        <ele>345.73</ele>
        <time>2020-09-11T12:26:58Z</time>
      </trkpt>
      <trkpt lat="49.59468" lon="4.99274">
        <ele>346.69</ele>
        <time>2020-09-11T12:27:15Z</time>
      </trkpt>
      <trkpt lat="49.59466" lon="4.99279">
        <ele>346.21</ele>
        <time>2020-09-11T12:27:36Z</time>
      </trkpt>
      <trkpt lat="49.59463" lon="4.99283">
        <ele>344.77</ele>
        <time>2020-09-11T12:27:40Z</time>
      </trkpt>
      <trkpt lat="49.59458" lon="4.99292">
        <ele>341.89</ele>
        <time>2020-09-11T12:27:52Z</time>
      </trkpt>
      <trkpt lat="49.59462" lon="4.99325">
        <ele>322.18</ele>
        <time>2020-09-11T12:28:05Z</time>
      </trkpt>
      <trkpt lat="49.59455" lon="4.99351">
        <ele>306.8</ele>
        <time>2020-09-11T12:28:22Z</time>
      </trkpt>
      <trkpt lat="49.59442" lon="4.99375">
        <ele>299.11</ele>
        <time>2020-09-11T12:28:39Z</time>
      </trkpt>
      <trkpt lat="49.59432" lon="4.99389">
        <ele>294.3</ele>
        <time>2020-09-11T12:28:56Z</time>
      </trkpt>
      <trkpt lat="49.5942" lon="4.99406">
        <ele>292.86</ele>
        <time>2020-09-11T12:29:10Z</time>
      </trkpt>
      <trkpt lat="49.59405" lon="4.99422">
        <ele>294.3</ele>
        <time>2020-09-11T12:29:27Z</time>
      </trkpt>
      <trkpt lat="49.59389" lon="4.99434">
        <ele>298.63</ele>
        <time>2020-09-11T12:29:43Z</time>
      </trkpt>
      <trkpt lat="49.59382" lon="4.9944">
        <ele>298.63</ele>
        <time>2020-09-11T12:29:49Z</time>
      </trkpt>
      <trkpt lat="49.59373" lon="4.99447">
        <ele>300.55</ele>
        <time>2020-09-11T12:30:01Z</time>
      </trkpt>
      <trkpt lat="49.59367" lon="4.99452">
        <ele>301.99</ele>
        <time>2020-09-11T12:30:07Z</time>
      </trkpt>
      <trkpt lat="49.59355" lon="4.99462">
        <ele>306.8</ele>
        <time>2020-09-11T12:30:20Z</time>
      </trkpt>
      <trkpt lat="49.5935" lon="4.99487">
        <ele>301.51</ele>
        <time>2020-09-11T12:30:36Z</time>
      </trkpt>
      <trkpt lat="49.59344" lon="4.99494">
        <ele>293.82</ele>
        <time>2020-09-11T12:30:51Z</time>
      </trkpt>
      <trkpt lat="49.5934" lon="4.99496">
        <ele>294.78</ele>
        <time>2020-09-11T12:31:19Z</time>
      </trkpt>
      <trkpt lat="49.5934" lon="4.99497">
        <ele>295.74</ele>
        <time>2020-09-11T12:31:42Z</time>
      </trkpt>
      <trkpt lat="49.59339" lon="4.99498">
        <ele>295.26</ele>
        <time>2020-09-11T12:32:06Z</time>
      </trkpt>
      <trkpt lat="49.59338" lon="4.99499">
        <ele>296.22</ele>
        <time>2020-09-11T12:32:27Z</time>
      </trkpt>
      <trkpt lat="49.59338" lon="4.995">
        <ele>296.22</ele>
        <time>2020-09-11T12:32:47Z</time>
      </trkpt>
      <trkpt lat="49.59338" lon="4.99501">
        <ele>297.18</ele>
        <time>2020-09-11T12:33:14Z</time>
      </trkpt>
      <trkpt lat="49.59336" lon="4.99502">
        <ele>297.18</ele>
        <time>2020-09-11T12:33:36Z</time>
      </trkpt>
      <trkpt lat="49.59337" lon="4.99501">
        <ele>297.67</ele>
        <time>2020-09-11T12:34:04Z</time>
      </trkpt>
      <trkpt lat="49.59338" lon="4.99501">
        <ele>297.67</ele>
        <time>2020-09-11T12:34:27Z</time>
      </trkpt>
      <trkpt lat="49.59339" lon="4.99501">
        <ele>297.18</ele>
        <time>2020-09-11T12:34:52Z</time>
      </trkpt>
      <trkpt lat="49.59339" lon="4.99501">
        <ele>297.18</ele>
        <time>2020-09-11T12:35:22Z</time>
      </trkpt>
      <trkpt lat="49.59339" lon="4.99501">
        <ele>296.22</ele>
        <time>2020-09-11T12:35:47Z</time>
      </trkpt>
      <trkpt lat="49.5934" lon="4.99501">
        <ele>296.22</ele>
        <time>2020-09-11T12:36:16Z</time>
      </trkpt>
      <trkpt lat="49.5934" lon="4.99501">
        <ele>296.22</ele>
        <time>2020-09-11T12:36:44Z</time>
      </trkpt>
      <trkpt lat="49.59341" lon="4.99501">
        <ele>295.74</ele>
        <time>2020-09-11T12:37:14Z</time>
      </trkpt>
      <trkpt lat="49.59341" lon="4.99501">
        <ele>296.22</ele>
        <time>2020-09-11T12:37:39Z</time>
      </trkpt>
      <trkpt lat="49.59341" lon="4.995">
        <ele>295.74</ele>
        <time>2020-09-11T12:37:55Z</time>
      </trkpt>
      <trkpt lat="49.5934" lon="4.99502">
        <ele>295.26</ele>
        <time>2020-09-11T12:38:21Z</time>
      </trkpt>
      <trkpt lat="49.5934" lon="4.99504">
        <ele>295.74</ele>
        <time>2020-09-11T12:38:53Z</time>
      </trkpt>
      <trkpt lat="49.59341" lon="4.99504">
        <ele>295.26</ele>
        <time>2020-09-11T12:39:24Z</time>
      </trkpt>
      <trkpt lat="49.5934" lon="4.99504">
        <ele>295.74</ele>
        <time>2020-09-11T12:39:47Z</time>
      </trkpt>
      <trkpt lat="49.59335" lon="4.9951">
        <ele>295.74</ele>
        <time>2020-09-11T12:40:00Z</time>
      </trkpt>
      <trkpt lat="49.5933" lon="4.99516">
        <ele>296.22</ele>
        <time>2020-09-11T12:40:14Z</time>
      </trkpt>
      <trkpt lat="49.59315" lon="4.99529">
        <ele>297.18</ele>
        <time>2020-09-11T12:40:32Z</time>
      </trkpt>
      <trkpt lat="49.59307" lon="4.9953">
        <ele>297.18</ele>
        <time>2020-09-11T12:40:48Z</time>
      </trkpt>
      <trkpt lat="49.59306" lon="4.99522">
        <ele>298.15</ele>
        <time>2020-09-11T12:41:05Z</time>
      </trkpt>
      <trkpt lat="49.593" lon="4.99499">
        <ele>296.7</ele>
        <time>2020-09-11T12:41:22Z</time>
      </trkpt>
      <trkpt lat="49.59301" lon="4.99477">
        <ele>295.26</ele>
        <time>2020-09-11T12:41:38Z</time>
      </trkpt>
      <trkpt lat="49.59297" lon="4.99456">
        <ele>296.7</ele>
        <time>2020-09-11T12:41:58Z</time>
      </trkpt>
      <trkpt lat="49.59297" lon="4.99425">
        <ele>294.78</ele>
        <time>2020-09-11T12:42:17Z</time>
      </trkpt>
      <trkpt lat="49.59294" lon="4.99409">
        <ele>295.74</ele>
        <time>2020-09-11T12:42:30Z</time>
      </trkpt>
      <trkpt lat="49.59292" lon="4.99384">
        <ele>295.74</ele>
        <time>2020-09-11T12:42:45Z</time>
      </trkpt>
      <trkpt lat="49.59291" lon="4.99359">
        <ele>296.7</ele>
        <time>2020-09-11T12:43:02Z</time>
      </trkpt>
      <trkpt lat="49.59288" lon="4.99326">
        <ele>295.74</ele>
        <time>2020-09-11T12:43:20Z</time>
      </trkpt>
      <trkpt lat="49.59282" lon="4.9929">
        <ele>294.3</ele>
        <time>2020-09-11T12:43:37Z</time>
      </trkpt>
      <trkpt lat="49.59278" lon="4.99261">
        <ele>292.86</ele>
        <time>2020-09-11T12:43:52Z</time>
      </trkpt>
      <trkpt lat="49.59275" lon="4.99247">
        <ele>292.86</ele>
        <time>2020-09-11T12:44:06Z</time>
      </trkpt>
      <trkpt lat="49.59273" lon="4.99235">
        <ele>293.34</ele>
        <time>2020-09-11T12:44:24Z</time>
      </trkpt>
      <trkpt lat="49.5927" lon="4.99198">
        <ele>295.26</ele>
        <time>2020-09-11T12:44:39Z</time>
      </trkpt>
      <trkpt lat="49.59266" lon="4.99173">
        <ele>294.78</ele>
        <time>2020-09-11T12:44:53Z</time>
      </trkpt>
      <trkpt lat="49.59261" lon="4.99156">
        <ele>292.86</ele>
        <time>2020-09-11T12:45:08Z</time>
      </trkpt>
      <trkpt lat="49.59261" lon="4.99141">
        <ele>291.42</ele>
        <time>2020-09-11T12:45:26Z</time>
      </trkpt>
      <trkpt lat="49.59261" lon="4.99123">
        <ele>289.01</ele>
        <time>2020-09-11T12:45:43Z</time>
      </trkpt>
      <trkpt lat="49.5926" lon="4.99101">
        <ele>287.09</ele>
        <time>2020-09-11T12:45:59Z</time>
      </trkpt>
      <trkpt lat="49.59255" lon="4.99083">
        <ele>287.57</ele>
        <time>2020-09-11T12:46:18Z</time>
      </trkpt>
      <trkpt lat="49.59253" lon="4.9905">
        <ele>284.21</ele>
        <time>2020-09-11T12:46:35Z</time>
      </trkpt>
      <trkpt lat="49.59251" lon="4.99021">
        <ele>283.25</ele>
        <time>2020-09-11T12:46:53Z</time>
      </trkpt>
      <trkpt lat="49.59251" lon="4.98993">
        <ele>281.8</ele>
        <time>2020-09-11T12:47:11Z</time>
      </trkpt>
      <trkpt lat="49.5925" lon="4.98966">
        <ele>281.32</ele>
        <time>2020-09-11T12:47:26Z</time>
      </trkpt>
      <trkpt lat="49.59249" lon="4.98945">
        <ele>280.84</ele>
        <time>2020-09-11T12:47:42Z</time>
      </trkpt>
      <trkpt lat="49.59249" lon="4.98929">
        <ele>280.36</ele>
        <time>2020-09-11T12:47:56Z</time>
      </trkpt>
      <trkpt lat="49.59245" lon="4.98891">
        <ele>277.96</ele>
        <time>2020-09-11T12:48:11Z</time>
      </trkpt>
      <trkpt lat="49.59242" lon="4.98877">
        <ele>279.4</ele>
        <time>2020-09-11T12:48:19Z</time>
      </trkpt>
      <trkpt lat="49.59242" lon="4.98848">
        <ele>279.88</ele>
        <time>2020-09-11T12:48:30Z</time>
      </trkpt>
      <trkpt lat="49.5924" lon="4.9883">
        <ele>278.92</ele>
        <time>2020-09-11T12:48:37Z</time>
      </trkpt>
      <trkpt lat="49.59232" lon="4.988">
        <ele>276.52</ele>
        <time>2020-09-11T12:48:54Z</time>
      </trkpt>
      <trkpt lat="49.5923" lon="4.98786">
        <ele>274.59</ele>
        <time>2020-09-11T12:49:05Z</time>
      </trkpt>
      <trkpt lat="49.59229" lon="4.98759">
        <ele>272.67</ele>
        <time>2020-09-11T12:49:22Z</time>
      </trkpt>
      <trkpt lat="49.5923" lon="4.98728">
        <ele>269.31</ele>
        <time>2020-09-11T12:49:40Z</time>
      </trkpt>
      <trkpt lat="49.59232" lon="4.98698">
        <ele>267.86</ele>
        <time>2020-09-11T12:49:56Z</time>
      </trkpt>
      <trkpt lat="49.59232" lon="4.98668">
        <ele>268.35</ele>
        <time>2020-09-11T12:50:13Z</time>
      </trkpt>
      <trkpt lat="49.59231" lon="4.98641">
        <ele>268.35</ele>
        <time>2020-09-11T12:50:29Z</time>
      </trkpt>
      <trkpt lat="49.59231" lon="4.98629">
        <ele>269.31</ele>
        <time>2020-09-11T12:50:35Z</time>
      </trkpt>
      <trkpt lat="49.59233" lon="4.98599">
        <ele>267.38</ele>
        <time>2020-09-11T12:50:52Z</time>
      </trkpt>
      <trkpt lat="49.59232" lon="4.98572">
        <ele>264.98</ele>
        <time>2020-09-11T12:51:07Z</time>
      </trkpt>
      <trkpt lat="49.59233" lon="4.98545">
        <ele>263.54</ele>
        <time>2020-09-11T12:51:24Z</time>
      </trkpt>
      <trkpt lat="49.59234" lon="4.98533">
        <ele>263.54</ele>
        <time>2020-09-11T12:51:33Z</time>
      </trkpt>
      <trkpt lat="49.59235" lon="4.98509">
        <ele>261.62</ele>
        <time>2020-09-11T12:51:48Z</time>
      </trkpt>
      <trkpt lat="49.59236" lon="4.9848">
        <ele>264.02</ele>
        <time>2020-09-11T12:52:04Z</time>
      </trkpt>
      <trkpt lat="49.59236" lon="4.98477">
        <ele>264.02</ele>
        <time>2020-09-11T12:52:05Z</time>
      </trkpt>
      <trkpt lat="49.59235" lon="4.98447">
        <ele>269.79</ele>
        <time>2020-09-11T12:52:20Z</time>
      </trkpt>
      <trkpt lat="49.59235" lon="4.98442">
        <ele>270.27</ele>
        <time>2020-09-11T12:52:22Z</time>
      </trkpt>
      <trkpt lat="49.59236" lon="4.98407">
        <ele>272.67</ele>
        <time>2020-09-11T12:52:40Z</time>
      </trkpt>
      <trkpt lat="49.59237" lon="4.98379">
        <ele>275.07</ele>
        <time>2020-09-11T12:52:56Z</time>
      </trkpt>
      <trkpt lat="49.59238" lon="4.98365">
        <ele>276.04</ele>
        <time>2020-09-11T12:53:04Z</time>
      </trkpt>
      <trkpt lat="49.59238" lon="4.98335">
        <ele>277.96</ele>
        <time>2020-09-11T12:53:21Z</time>
      </trkpt>
      <trkpt lat="49.59239" lon="4.98305">
        <ele>279.88</ele>
        <time>2020-09-11T12:53:39Z</time>
      </trkpt>
      <trkpt lat="49.59239" lon="4.98275">
        <ele>279.88</ele>
        <time>2020-09-11T12:53:57Z</time>
      </trkpt>
      <trkpt lat="49.59239" lon="4.98247">
        <ele>281.32</ele>
        <time>2020-09-11T12:54:13Z</time>
      </trkpt>
      <trkpt lat="49.59239" lon="4.98221">
        <ele>284.69</ele>
        <time>2020-09-11T12:54:29Z</time>
      </trkpt>
      <trkpt lat="49.59238" lon="4.98203">
        <ele>288.05</ele>
        <time>2020-09-11T12:54:41Z</time>
      </trkpt>
      <trkpt lat="49.59238" lon="4.98178">
        <ele>290.94</ele>
        <time>2020-09-11T12:54:56Z</time>
      </trkpt>
      <trkpt lat="49.59238" lon="4.98147">
        <ele>292.86</ele>
        <time>2020-09-11T12:55:13Z</time>
      </trkpt>
      <trkpt lat="49.59237" lon="4.98126">
        <ele>293.82</ele>
        <time>2020-09-11T12:55:25Z</time>
      </trkpt>
      <trkpt lat="49.59235" lon="4.98106">
        <ele>293.82</ele>
        <time>2020-09-11T12:55:38Z</time>
      </trkpt>
      <trkpt lat="49.59234" lon="4.98087">
        <ele>293.82</ele>
        <time>2020-09-11T12:55:50Z</time>
      </trkpt>
      <trkpt lat="49.59232" lon="4.98065">
        <ele>293.34</ele>
        <time>2020-09-11T12:56:03Z</time>
      </trkpt>
      <trkpt lat="49.59231" lon="4.98038">
        <ele>292.86</ele>
        <time>2020-09-11T12:56:19Z</time>
      </trkpt>
      <trkpt lat="49.59229" lon="4.98012">
        <ele>293.34</ele>
        <time>2020-09-11T12:56:35Z</time>
      </trkpt>
      <trkpt lat="49.59228" lon="4.97986">
        <ele>295.26</ele>
        <time>2020-09-11T12:56:51Z</time>
      </trkpt>
      <trkpt lat="49.59225" lon="4.9796">
        <ele>296.7</ele>
        <time>2020-09-11T12:57:08Z</time>
      </trkpt>
      <trkpt lat="49.59222" lon="4.97928">
        <ele>298.63</ele>
        <time>2020-09-11T12:57:27Z</time>
      </trkpt>
      <trkpt lat="49.5922" lon="4.97904">
        <ele>299.11</ele>
        <time>2020-09-11T12:57:41Z</time>
      </trkpt>
      <trkpt lat="49.59217" lon="4.9788">
        <ele>299.59</ele>
        <time>2020-09-11T12:57:56Z</time>
      </trkpt>
      <trkpt lat="49.59215" lon="4.97854">
        <ele>300.55</ele>
        <time>2020-09-11T12:58:11Z</time>
      </trkpt>
      <trkpt lat="49.59212" lon="4.97829">
        <ele>301.03</ele>
        <time>2020-09-11T12:58:26Z</time>
      </trkpt>
      <trkpt lat="49.59207" lon="4.97804">
        <ele>302.95</ele>
        <time>2020-09-11T12:58:41Z</time>
      </trkpt>
      <trkpt lat="49.59202" lon="4.97776">
        <ele>303.43</ele>
        <time>2020-09-11T12:58:58Z</time>
      </trkpt>
      <trkpt lat="49.59197" lon="4.97753">
        <ele>303.43</ele>
        <time>2020-09-11T12:59:13Z</time>
      </trkpt>
      <trkpt lat="49.59194" lon="4.97729">
        <ele>305.84</ele>
        <time>2020-09-11T12:59:28Z</time>
      </trkpt>
      <trkpt lat="49.59195" lon="4.9773">
        <ele>305.84</ele>
        <time>2020-09-11T12:59:44Z</time>
      </trkpt>
      <trkpt lat="49.59194" lon="4.9773">
        <ele>304.88</ele>
        <time>2020-09-11T13:00:04Z</time>
      </trkpt>
      <trkpt lat="49.59194" lon="4.9773">
        <ele>304.88</ele>
        <time>2020-09-11T13:00:10Z</time>
      </trkpt>
      <trkpt lat="49.59195" lon="4.97719">
        <ele>304.88</ele>
        <time>2020-09-11T13:00:24Z</time>
      </trkpt>
      <trkpt lat="49.59196" lon="4.97717">
        <ele>304.88</ele>
        <time>2020-09-11T13:00:44Z</time>
      </trkpt>
      <trkpt lat="49.59211" lon="4.977">
        <ele>305.84</ele>
        <time>2020-09-11T13:01:00Z</time>
      </trkpt>
      <trkpt lat="49.59224" lon="4.97685">
        <ele>306.8</ele>
        <time>2020-09-11T13:01:14Z</time>
      </trkpt>
      <trkpt lat="49.59237" lon="4.97669">
        <ele>307.76</ele>
        <time>2020-09-11T13:01:31Z</time>
      </trkpt>
      <trkpt lat="49.59238" lon="4.97669">
        <ele>306.32</ele>
        <time>2020-09-11T13:01:51Z</time>
      </trkpt>
      <trkpt lat="49.59243" lon="4.97662">
        <ele>307.76</ele>
        <time>2020-09-11T13:02:09Z</time>
      </trkpt>
      <trkpt lat="49.59246" lon="4.97657">
        <ele>308.24</ele>
        <time>2020-09-11T13:02:29Z</time>
      </trkpt>
      <trkpt lat="49.59251" lon="4.9765">
        <ele>307.76</ele>
        <time>2020-09-11T13:02:48Z</time>
      </trkpt>
      <trkpt lat="49.59257" lon="4.97642">
        <ele>307.28</ele>
        <time>2020-09-11T13:03:01Z</time>
      </trkpt>
      <trkpt lat="49.59275" lon="4.97622">
        <ele>308.24</ele>
        <time>2020-09-11T13:03:19Z</time>
      </trkpt>
      <trkpt lat="49.59279" lon="4.97616">
        <ele>308.72</ele>
        <time>2020-09-11T13:03:23Z</time>
      </trkpt>
      <trkpt lat="49.59294" lon="4.97598">
        <ele>307.28</ele>
        <time>2020-09-11T13:03:43Z</time>
      </trkpt>
      <trkpt lat="49.59306" lon="4.9758">
        <ele>305.84</ele>
        <time>2020-09-11T13:04:00Z</time>
      </trkpt>
      <trkpt lat="49.59319" lon="4.97561">
        <ele>305.36</ele>
        <time>2020-09-11T13:04:16Z</time>
      </trkpt>
      <trkpt lat="49.5933" lon="4.97543">
        <ele>305.36</ele>
        <time>2020-09-11T13:04:33Z</time>
      </trkpt>
      <trkpt lat="49.59342" lon="4.97528">
        <ele>305.36</ele>
        <time>2020-09-11T13:04:46Z</time>
      </trkpt>
      <trkpt lat="49.59353" lon="4.97511">
        <ele>303.91</ele>
        <time>2020-09-11T13:05:01Z</time>
      </trkpt>
      <trkpt lat="49.59366" lon="4.97492">
        <ele>301.51</ele>
        <time>2020-09-11T13:05:19Z</time>
      </trkpt>
      <trkpt lat="49.59376" lon="4.97471">
        <ele>298.63</ele>
        <time>2020-09-11T13:05:34Z</time>
      </trkpt>
      <trkpt lat="49.59391" lon="4.97447">
        <ele>297.67</ele>
        <time>2020-09-11T13:05:53Z</time>
      </trkpt>
      <trkpt lat="49.59402" lon="4.97429">
        <ele>295.74</ele>
        <time>2020-09-11T13:06:09Z</time>
      </trkpt>
      <trkpt lat="49.59412" lon="4.97408">
        <ele>293.82</ele>
        <time>2020-09-11T13:06:27Z</time>
      </trkpt>
      <trkpt lat="49.59424" lon="4.97388">
        <ele>293.34</ele>
        <time>2020-09-11T13:06:43Z</time>
      </trkpt>
      <trkpt lat="49.59433" lon="4.9737">
        <ele>290.94</ele>
        <time>2020-09-11T13:06:59Z</time>
      </trkpt>
      <trkpt lat="49.59446" lon="4.97348">
        <ele>289.97</ele>
        <time>2020-09-11T13:07:16Z</time>
      </trkpt>
      <trkpt lat="49.59453" lon="4.9733">
        <ele>288.05</ele>
        <time>2020-09-11T13:07:31Z</time>
      </trkpt>
      <trkpt lat="49.59456" lon="4.97325">
        <ele>287.57</ele>
        <time>2020-09-11T13:07:35Z</time>
      </trkpt>
      <trkpt lat="49.59471" lon="4.97301">
        <ele>288.05</ele>
        <time>2020-09-11T13:07:52Z</time>
      </trkpt>
      <trkpt lat="49.59481" lon="4.97281">
        <ele>289.01</ele>
        <time>2020-09-11T13:08:10Z</time>
      </trkpt>
      <trkpt lat="49.59495" lon="4.97258">
        <ele>288.05</ele>
        <time>2020-09-11T13:08:28Z</time>
      </trkpt>
      <trkpt lat="49.59507" lon="4.97241">
        <ele>287.09</ele>
        <time>2020-09-11T13:08:46Z</time>
      </trkpt>
      <trkpt lat="49.59522" lon="4.9722">
        <ele>289.01</ele>
        <time>2020-09-11T13:09:02Z</time>
      </trkpt>
      <trkpt lat="49.59536" lon="4.97203">
        <ele>288.05</ele>
        <time>2020-09-11T13:09:21Z</time>
      </trkpt>
      <trkpt lat="49.59549" lon="4.97184">
        <ele>288.05</ele>
        <time>2020-09-11T13:09:37Z</time>
      </trkpt>
      <trkpt lat="49.59557" lon="4.97169">
        <ele>282.77</ele>
        <time>2020-09-11T13:09:53Z</time>
      </trkpt>
      <trkpt lat="49.59558" lon="4.97168">
        <ele>282.77</ele>
        <time>2020-09-11T13:09:54Z</time>
      </trkpt>
      <trkpt lat="49.5956" lon="4.97161">
        <ele>283.25</ele>
        <time>2020-09-11T13:09:58Z</time>
      </trkpt>
      <trkpt lat="49.59568" lon="4.97141">
        <ele>280.84</ele>
        <time>2020-09-11T13:10:12Z</time>
      </trkpt>
      <trkpt lat="49.59575" lon="4.97121">
        <ele>279.4</ele>
        <time>2020-09-11T13:10:26Z</time>
      </trkpt>
      <trkpt lat="49.59577" lon="4.97114">
        <ele>278.92</ele>
        <time>2020-09-11T13:10:30Z</time>
      </trkpt>
      <trkpt lat="49.59578" lon="4.97104">
        <ele>277.96</ele>
        <time>2020-09-11T13:10:38Z</time>
      </trkpt>
      <trkpt lat="49.5958" lon="4.97096">
        <ele>277.96</ele>
        <time>2020-09-11T13:10:43Z</time>
      </trkpt>
      <trkpt lat="49.59583" lon="4.97075">
        <ele>277.48</ele>
        <time>2020-09-11T13:10:58Z</time>
      </trkpt>
      <trkpt lat="49.59587" lon="4.97064">
        <ele>277</ele>
        <time>2020-09-11T13:11:09Z</time>
      </trkpt>
      <trkpt lat="49.59588" lon="4.97051">
        <ele>276.52</ele>
        <time>2020-09-11T13:11:15Z</time>
      </trkpt>
      <trkpt lat="49.59589" lon="4.97044">
        <ele>276.04</ele>
        <time>2020-09-11T13:11:30Z</time>
      </trkpt>
      <trkpt lat="49.59589" lon="4.97043">
        <ele>275.56</ele>
        <time>2020-09-11T13:11:50Z</time>
      </trkpt>
      <trkpt lat="49.5959" lon="4.97043">
        <ele>274.59</ele>
        <time>2020-09-11T13:12:10Z</time>
      </trkpt>
      <trkpt lat="49.59589" lon="4.97043">
        <ele>274.59</ele>
        <time>2020-09-11T13:12:36Z</time>
      </trkpt>
      <trkpt lat="49.59589" lon="4.97042">
        <ele>274.59</ele>
        <time>2020-09-11T13:13:14Z</time>
      </trkpt>
      <trkpt lat="49.59589" lon="4.97042">
        <ele>274.11</ele>
        <time>2020-09-11T13:13:50Z</time>
      </trkpt>
      <trkpt lat="49.59589" lon="4.97042">
        <ele>273.15</ele>
        <time>2020-09-11T13:14:22Z</time>
      </trkpt>
      <trkpt lat="49.59589" lon="4.97042">
        <ele>272.67</ele>
        <time>2020-09-11T13:14:50Z</time>
      </trkpt>
      <trkpt lat="49.5959" lon="4.97042">
        <ele>272.19</ele>
        <time>2020-09-11T13:15:22Z</time>
      </trkpt>
      <trkpt lat="49.5959" lon="4.97042">
        <ele>272.19</ele>
        <time>2020-09-11T13:15:53Z</time>
      </trkpt>
      <trkpt lat="49.5959" lon="4.97041">
        <ele>272.19</ele>
        <time>2020-09-11T13:16:18Z</time>
      </trkpt>
      <trkpt lat="49.59589" lon="4.97042">
        <ele>270.75</ele>
        <time>2020-09-11T13:16:38Z</time>
      </trkpt>
      <trkpt lat="49.59589" lon="4.97043">
        <ele>269.79</ele>
        <time>2020-09-11T13:17:01Z</time>
      </trkpt>
      <trkpt lat="49.59589" lon="4.97043">
        <ele>269.79</ele>
        <time>2020-09-11T13:17:19Z</time>
      </trkpt>
      <trkpt lat="49.59589" lon="4.97042">
        <ele>269.79</ele>
        <time>2020-09-11T13:17:42Z</time>
      </trkpt>
      <trkpt lat="49.59588" lon="4.97042">
        <ele>270.27</ele>
        <time>2020-09-11T13:18:10Z</time>
      </trkpt>
      <trkpt lat="49.59588" lon="4.97042">
        <ele>269.79</ele>
        <time>2020-09-11T13:18:29Z</time>
      </trkpt>
      <trkpt lat="49.59588" lon="4.97042">
        <ele>269.31</ele>
        <time>2020-09-11T13:18:57Z</time>
      </trkpt>
      <trkpt lat="49.59588" lon="4.97041">
        <ele>269.31</ele>
        <time>2020-09-11T13:19:23Z</time>
      </trkpt>
      <trkpt lat="49.59587" lon="4.97041">
        <ele>269.31</ele>
        <time>2020-09-11T13:19:45Z</time>
      </trkpt>
      <trkpt lat="49.59587" lon="4.97042">
        <ele>268.83</ele>
        <time>2020-09-11T13:20:02Z</time>
      </trkpt>
      <trkpt lat="49.59589" lon="4.97044">
        <ele>268.35</ele>
        <time>2020-09-11T13:20:16Z</time>
      </trkpt>
      <trkpt lat="49.59593" lon="4.97054">
        <ele>269.31</ele>
        <time>2020-09-11T13:20:30Z</time>
      </trkpt>
      <trkpt lat="49.59594" lon="4.97055">
        <ele>269.79</ele>
        <time>2020-09-11T13:20:33Z</time>
      </trkpt>
      <trkpt lat="49.59599" lon="4.97063">
        <ele>269.79</ele>
        <time>2020-09-11T13:20:41Z</time>
      </trkpt>
      <trkpt lat="49.59601" lon="4.97077">
        <ele>270.27</ele>
        <time>2020-09-11T13:20:55Z</time>
      </trkpt>
      <trkpt lat="49.59601" lon="4.97084">
        <ele>271.23</ele>
        <time>2020-09-11T13:21:09Z</time>
      </trkpt>
      <trkpt lat="49.59599" lon="4.97093">
        <ele>273.15</ele>
        <time>2020-09-11T13:21:23Z</time>
      </trkpt>
      <trkpt lat="49.59597" lon="4.97097">
        <ele>274.11</ele>
        <time>2020-09-11T13:21:35Z</time>
      </trkpt>
      <trkpt lat="49.596" lon="4.9711">
        <ele>274.11</ele>
        <time>2020-09-11T13:21:49Z</time>
      </trkpt>
      <trkpt lat="49.596" lon="4.97122">
        <ele>271.23</ele>
        <time>2020-09-11T13:22:01Z</time>
      </trkpt>
      <trkpt lat="49.59592" lon="4.97133">
        <ele>272.19</ele>
        <time>2020-09-11T13:22:16Z</time>
      </trkpt>
      <trkpt lat="49.59591" lon="4.97148">
        <ele>273.15</ele>
        <time>2020-09-11T13:22:29Z</time>
      </trkpt>
      <trkpt lat="49.59597" lon="4.97171">
        <ele>269.79</ele>
        <time>2020-09-11T13:22:44Z</time>
      </trkpt>
      <trkpt lat="49.59596" lon="4.97176">
        <ele>270.27</ele>
        <time>2020-09-11T13:22:49Z</time>
      </trkpt>
      <trkpt lat="49.59594" lon="4.97202">
        <ele>272.67</ele>
        <time>2020-09-11T13:23:05Z</time>
      </trkpt>
      <trkpt lat="49.59594" lon="4.9721">
        <ele>273.63</ele>
        <time>2020-09-11T13:23:10Z</time>
      </trkpt>
      <trkpt lat="49.59589" lon="4.97223">
        <ele>275.07</ele>
        <time>2020-09-11T13:23:25Z</time>
      </trkpt>
      <trkpt lat="49.59587" lon="4.97236">
        <ele>276.04</ele>
        <time>2020-09-11T13:23:42Z</time>
      </trkpt>
      <trkpt lat="49.59585" lon="4.9725">
        <ele>276.04</ele>
        <time>2020-09-11T13:23:55Z</time>
      </trkpt>
      <trkpt lat="49.59582" lon="4.97273">
        <ele>275.56</ele>
        <time>2020-09-11T13:24:10Z</time>
      </trkpt>
      <trkpt lat="49.59584" lon="4.97286">
        <ele>274.59</ele>
        <time>2020-09-11T13:24:21Z</time>
      </trkpt>
      <trkpt lat="49.59581" lon="4.97294">
        <ele>274.11</ele>
        <time>2020-09-11T13:24:28Z</time>
      </trkpt>
      <trkpt lat="49.59577" lon="4.97304">
        <ele>273.15</ele>
        <time>2020-09-11T13:24:38Z</time>
      </trkpt>
      <trkpt lat="49.59586" lon="4.97323">
        <ele>274.11</ele>
        <time>2020-09-11T13:24:52Z</time>
      </trkpt>
      <trkpt lat="49.59589" lon="4.9733">
        <ele>275.56</ele>
        <time>2020-09-11T13:25:00Z</time>
      </trkpt>
      <trkpt lat="49.59598" lon="4.97331">
        <ele>275.56</ele>
        <time>2020-09-11T13:25:15Z</time>
      </trkpt>
      <trkpt lat="49.59604" lon="4.97344">
        <ele>274.59</ele>
        <time>2020-09-11T13:25:29Z</time>
      </trkpt>
      <trkpt lat="49.59609" lon="4.97358">
        <ele>274.59</ele>
        <time>2020-09-11T13:25:41Z</time>
      </trkpt>
      <trkpt lat="49.5962" lon="4.97378">
        <ele>275.07</ele>
        <time>2020-09-11T13:25:56Z</time>
      </trkpt>
      <trkpt lat="49.59633" lon="4.97392">
        <ele>277.48</ele>
        <time>2020-09-11T13:26:10Z</time>
      </trkpt>
      <trkpt lat="49.5964" lon="4.97409">
        <ele>277.96</ele>
        <time>2020-09-11T13:26:26Z</time>
      </trkpt>
      <trkpt lat="49.59641" lon="4.97412">
        <ele>277.96</ele>
        <time>2020-09-11T13:26:28Z</time>
      </trkpt>
      <trkpt lat="49.59648" lon="4.97428">
        <ele>277.96</ele>
        <time>2020-09-11T13:26:40Z</time>
      </trkpt>
      <trkpt lat="49.59661" lon="4.97445">
        <ele>280.36</ele>
        <time>2020-09-11T13:26:56Z</time>
      </trkpt>
      <trkpt lat="49.59671" lon="4.97464">
        <ele>282.28</ele>
        <time>2020-09-11T13:27:12Z</time>
      </trkpt>
      <trkpt lat="49.59684" lon="4.97478">
        <ele>283.25</ele>
        <time>2020-09-11T13:27:28Z</time>
      </trkpt>
      <trkpt lat="49.59687" lon="4.97483">
        <ele>284.21</ele>
        <time>2020-09-11T13:27:32Z</time>
      </trkpt>
      <trkpt lat="49.59701" lon="4.975">
        <ele>290.46</ele>
        <time>2020-09-11T13:27:48Z</time>
      </trkpt>
      <trkpt lat="49.59711" lon="4.97513">
        <ele>293.82</ele>
        <time>2020-09-11T13:28:05Z</time>
      </trkpt>
      <trkpt lat="49.59714" lon="4.97518">
        <ele>294.78</ele>
        <time>2020-09-11T13:28:09Z</time>
      </trkpt>
      <trkpt lat="49.59727" lon="4.97533">
        <ele>297.67</ele>
        <time>2020-09-11T13:28:25Z</time>
      </trkpt>
      <trkpt lat="49.59729" lon="4.97536">
        <ele>298.15</ele>
        <time>2020-09-11T13:28:28Z</time>
      </trkpt>
      <trkpt lat="49.59733" lon="4.97553">
        <ele>298.63</ele>
        <time>2020-09-11T13:28:40Z</time>
      </trkpt>
      <trkpt lat="49.59746" lon="4.97574">
        <ele>297.67</ele>
        <time>2020-09-11T13:28:56Z</time>
      </trkpt>
      <trkpt lat="49.59754" lon="4.97596">
        <ele>295.26</ele>
        <time>2020-09-11T13:29:11Z</time>
      </trkpt>
      <trkpt lat="49.59757" lon="4.976">
        <ele>293.34</ele>
        <time>2020-09-11T13:29:14Z</time>
      </trkpt>
      <trkpt lat="49.59762" lon="4.9762">
        <ele>289.49</ele>
        <time>2020-09-11T13:29:29Z</time>
      </trkpt>
      <trkpt lat="49.59764" lon="4.97637">
        <ele>288.53</ele>
        <time>2020-09-11T13:29:41Z</time>
      </trkpt>
      <trkpt lat="49.59767" lon="4.97663">
        <ele>285.17</ele>
        <time>2020-09-11T13:29:58Z</time>
      </trkpt>
      <trkpt lat="49.59772" lon="4.97685">
        <ele>283.73</ele>
        <time>2020-09-11T13:30:14Z</time>
      </trkpt>
      <trkpt lat="49.59771" lon="4.97692">
        <ele>282.77</ele>
        <time>2020-09-11T13:30:19Z</time>
      </trkpt>
      <trkpt lat="49.59775" lon="4.97717">
        <ele>281.32</ele>
        <time>2020-09-11T13:30:34Z</time>
      </trkpt>
      <trkpt lat="49.59781" lon="4.97744">
        <ele>281.8</ele>
        <time>2020-09-11T13:30:51Z</time>
      </trkpt>
      <trkpt lat="49.59785" lon="4.97766">
        <ele>285.65</ele>
        <time>2020-09-11T13:31:07Z</time>
      </trkpt>
      <trkpt lat="49.59789" lon="4.97784">
        <ele>286.61</ele>
        <time>2020-09-11T13:31:20Z</time>
      </trkpt>
      <trkpt lat="49.59792" lon="4.97805">
        <ele>287.57</ele>
        <time>2020-09-11T13:31:35Z</time>
      </trkpt>
      <trkpt lat="49.59803" lon="4.9783">
        <ele>287.57</ele>
        <time>2020-09-11T13:31:53Z</time>
      </trkpt>
      <trkpt lat="49.59812" lon="4.97852">
        <ele>287.57</ele>
        <time>2020-09-11T13:32:08Z</time>
      </trkpt>
      <trkpt lat="49.59823" lon="4.97876">
        <ele>293.82</ele>
        <time>2020-09-11T13:32:25Z</time>
      </trkpt>
      <trkpt lat="49.59825" lon="4.97881">
        <ele>293.82</ele>
        <time>2020-09-11T13:32:29Z</time>
      </trkpt>
      <trkpt lat="49.59832" lon="4.97895">
        <ele>294.78</ele>
        <time>2020-09-11T13:32:45Z</time>
      </trkpt>
      <trkpt lat="49.59841" lon="4.9791">
        <ele>294.3</ele>
        <time>2020-09-11T13:32:59Z</time>
      </trkpt>
      <trkpt lat="49.59845" lon="4.97918">
        <ele>292.38</ele>
        <time>2020-09-11T13:33:16Z</time>
      </trkpt>
      <trkpt lat="49.59851" lon="4.97941">
        <ele>289.97</ele>
        <time>2020-09-11T13:33:32Z</time>
      </trkpt>
      <trkpt lat="49.59857" lon="4.97948">
        <ele>287.57</ele>
        <time>2020-09-11T13:33:36Z</time>
      </trkpt>
      <trkpt lat="49.59869" lon="4.97954">
        <ele>292.38</ele>
        <time>2020-09-11T13:33:50Z</time>
      </trkpt>
      <trkpt lat="49.5988" lon="4.97958">
        <ele>291.9</ele>
        <time>2020-09-11T13:34:02Z</time>
      </trkpt>
      <trkpt lat="49.59889" lon="4.97954">
        <ele>291.42</ele>
        <time>2020-09-11T13:34:11Z</time>
      </trkpt>
      <trkpt lat="49.59899" lon="4.97941">
        <ele>292.38</ele>
        <time>2020-09-11T13:34:24Z</time>
      </trkpt>
      <trkpt lat="49.5991" lon="4.97935">
        <ele>295.26</ele>
        <time>2020-09-11T13:34:38Z</time>
      </trkpt>
      <trkpt lat="49.59927" lon="4.97932">
        <ele>296.7</ele>
        <time>2020-09-11T13:34:53Z</time>
      </trkpt>
      <trkpt lat="49.5994" lon="4.97929">
        <ele>295.74</ele>
        <time>2020-09-11T13:35:07Z</time>
      </trkpt>
      <trkpt lat="49.59956" lon="4.97923">
        <ele>299.59</ele>
        <time>2020-09-11T13:35:22Z</time>
      </trkpt>
      <trkpt lat="49.59959" lon="4.97923">
        <ele>300.55</ele>
        <time>2020-09-11T13:35:26Z</time>
      </trkpt>
      <trkpt lat="49.5997" lon="4.97924">
        <ele>301.51</ele>
        <time>2020-09-11T13:35:38Z</time>
      </trkpt>
      <trkpt lat="49.59982" lon="4.97924">
        <ele>301.03</ele>
        <time>2020-09-11T13:35:49Z</time>
      </trkpt>
      <trkpt lat="49.59995" lon="4.97915">
        <ele>301.51</ele>
        <time>2020-09-11T13:36:02Z</time>
      </trkpt>
      <trkpt lat="49.60008" lon="4.97914">
        <ele>304.39</ele>
        <time>2020-09-11T13:36:15Z</time>
      </trkpt>
      <trkpt lat="49.60023" lon="4.97903">
        <ele>308.24</ele>
        <time>2020-09-11T13:36:30Z</time>
      </trkpt>
      <trkpt lat="49.60041" lon="4.97894">
        <ele>309.2</ele>
        <time>2020-09-11T13:36:46Z</time>
      </trkpt>
      <trkpt lat="49.60051" lon="4.97894">
        <ele>308.24</ele>
        <time>2020-09-11T13:36:58Z</time>
      </trkpt>
      <trkpt lat="49.6007" lon="4.97896">
        <ele>308.24</ele>
        <time>2020-09-11T13:37:14Z</time>
      </trkpt>
      <trkpt lat="49.60086" lon="4.97889">
        <ele>308.72</ele>
        <time>2020-09-11T13:37:30Z</time>
      </trkpt>
      <trkpt lat="49.60101" lon="4.97878">
        <ele>311.6</ele>
        <time>2020-09-11T13:37:45Z</time>
      </trkpt>
      <trkpt lat="49.60106" lon="4.97878">
        <ele>312.09</ele>
        <time>2020-09-11T13:37:50Z</time>
      </trkpt>
      <trkpt lat="49.60124" lon="4.97875">
        <ele>311.12</ele>
        <time>2020-09-11T13:38:07Z</time>
      </trkpt>
      <trkpt lat="49.60129" lon="4.97876">
        <ele>310.64</ele>
        <time>2020-09-11T13:38:11Z</time>
      </trkpt>
      <trkpt lat="49.60139" lon="4.97871">
        <ele>309.68</ele>
        <time>2020-09-11T13:38:23Z</time>
      </trkpt>
      <trkpt lat="49.60153" lon="4.97867">
        <ele>310.64</ele>
        <time>2020-09-11T13:38:38Z</time>
      </trkpt>
      <trkpt lat="49.60166" lon="4.97865">
        <ele>310.64</ele>
        <time>2020-09-11T13:38:54Z</time>
      </trkpt>
      <trkpt lat="49.60167" lon="4.97865">
        <ele>310.64</ele>
        <time>2020-09-11T13:38:55Z</time>
      </trkpt>
      <trkpt lat="49.60183" lon="4.97859">
        <ele>311.12</ele>
        <time>2020-09-11T13:39:11Z</time>
      </trkpt>
      <trkpt lat="49.60197" lon="4.97855">
        <ele>307.76</ele>
        <time>2020-09-11T13:39:27Z</time>
      </trkpt>
      <trkpt lat="49.60211" lon="4.97848">
        <ele>306.32</ele>
        <time>2020-09-11T13:39:43Z</time>
      </trkpt>
      <trkpt lat="49.60226" lon="4.97846">
        <ele>303.43</ele>
        <time>2020-09-11T13:39:57Z</time>
      </trkpt>
      <trkpt lat="49.6024" lon="4.97839">
        <ele>303.43</ele>
        <time>2020-09-11T13:40:13Z</time>
      </trkpt>
      <trkpt lat="49.60251" lon="4.97838">
        <ele>300.07</ele>
        <time>2020-09-11T13:40:28Z</time>
      </trkpt>
      <trkpt lat="49.60259" lon="4.97834">
        <ele>298.63</ele>
        <time>2020-09-11T13:40:44Z</time>
      </trkpt>
      <trkpt lat="49.60269" lon="4.97832">
        <ele>297.67</ele>
        <time>2020-09-11T13:40:58Z</time>
      </trkpt>
      <trkpt lat="49.60288" lon="4.97825">
        <ele>294.78</ele>
        <time>2020-09-11T13:41:16Z</time>
      </trkpt>
      <trkpt lat="49.60298" lon="4.97826">
        <ele>291.42</ele>
        <time>2020-09-11T13:41:29Z</time>
      </trkpt>
      <trkpt lat="49.6031" lon="4.97826">
        <ele>289.97</ele>
        <time>2020-09-11T13:41:43Z</time>
      </trkpt>
      <trkpt lat="49.60322" lon="4.97823">
        <ele>289.01</ele>
        <time>2020-09-11T13:41:59Z</time>
      </trkpt>
      <trkpt lat="49.60331" lon="4.97819">
        <ele>288.05</ele>
        <time>2020-09-11T13:42:13Z</time>
      </trkpt>
      <trkpt lat="49.60341" lon="4.97811">
        <ele>288.05</ele>
        <time>2020-09-11T13:42:28Z</time>
      </trkpt>
      <trkpt lat="49.60346" lon="4.9781">
        <ele>288.05</ele>
        <time>2020-09-11T13:42:33Z</time>
      </trkpt>
      <trkpt lat="49.60359" lon="4.97805">
        <ele>288.53</ele>
        <time>2020-09-11T13:42:47Z</time>
      </trkpt>
      <trkpt lat="49.60362" lon="4.97805">
        <ele>288.53</ele>
        <time>2020-09-11T13:42:52Z</time>
      </trkpt>
      <trkpt lat="49.60373" lon="4.97797">
        <ele>288.05</ele>
        <time>2020-09-11T13:43:06Z</time>
      </trkpt>
      <trkpt lat="49.60386" lon="4.97784">
        <ele>288.53</ele>
        <time>2020-09-11T13:43:23Z</time>
      </trkpt>
      <trkpt lat="49.60398" lon="4.9776">
        <ele>288.53</ele>
        <time>2020-09-11T13:43:40Z</time>
      </trkpt>
      <trkpt lat="49.60408" lon="4.97741">
        <ele>287.57</ele>
        <time>2020-09-11T13:43:53Z</time>
      </trkpt>
      <trkpt lat="49.60418" lon="4.97724">
        <ele>287.57</ele>
        <time>2020-09-11T13:44:07Z</time>
      </trkpt>
      <trkpt lat="49.60424" lon="4.97713">
        <ele>288.05</ele>
        <time>2020-09-11T13:44:16Z</time>
      </trkpt>
      <trkpt lat="49.60432" lon="4.97691">
        <ele>286.61</ele>
        <time>2020-09-11T13:44:32Z</time>
      </trkpt>
      <trkpt lat="49.6044" lon="4.97676">
        <ele>287.09</ele>
        <time>2020-09-11T13:44:44Z</time>
      </trkpt>
      <trkpt lat="49.60445" lon="4.97659">
        <ele>288.05</ele>
        <time>2020-09-11T13:44:58Z</time>
      </trkpt>
      <trkpt lat="49.6045" lon="4.97639">
        <ele>285.65</ele>
        <time>2020-09-11T13:45:09Z</time>
      </trkpt>
      <trkpt lat="49.60453" lon="4.97619">
        <ele>281.8</ele>
        <time>2020-09-11T13:45:23Z</time>
      </trkpt>
      <trkpt lat="49.60454" lon="4.97598">
        <ele>277.96</ele>
        <time>2020-09-11T13:45:37Z</time>
      </trkpt>
      <trkpt lat="49.60457" lon="4.97579">
        <ele>277.48</ele>
        <time>2020-09-11T13:45:49Z</time>
      </trkpt>
      <trkpt lat="49.60459" lon="4.97555">
        <ele>278.44</ele>
        <time>2020-09-11T13:46:06Z</time>
      </trkpt>
      <trkpt lat="49.60462" lon="4.97533">
        <ele>278.92</ele>
        <time>2020-09-11T13:46:20Z</time>
      </trkpt>
      <trkpt lat="49.60462" lon="4.97525">
        <ele>278.44</ele>
        <time>2020-09-11T13:46:28Z</time>
      </trkpt>
      <trkpt lat="49.60467" lon="4.97505">
        <ele>278.44</ele>
        <time>2020-09-11T13:46:41Z</time>
      </trkpt>
      <trkpt lat="49.60468" lon="4.97489">
        <ele>277</ele>
        <time>2020-09-11T13:46:53Z</time>
      </trkpt>
      <trkpt lat="49.60469" lon="4.97467">
        <ele>275.07</ele>
        <time>2020-09-11T13:47:06Z</time>
      </trkpt>
      <trkpt lat="49.60469" lon="4.97463">
        <ele>274.11</ele>
        <time>2020-09-11T13:47:09Z</time>
      </trkpt>
      <trkpt lat="49.6047" lon="4.97457">
        <ele>273.63</ele>
        <time>2020-09-11T13:47:12Z</time>
      </trkpt>
      <trkpt lat="49.60469" lon="4.97439">
        <ele>270.75</ele>
        <time>2020-09-11T13:47:26Z</time>
      </trkpt>
      <trkpt lat="49.6047" lon="4.97423">
        <ele>268.83</ele>
        <time>2020-09-11T13:47:39Z</time>
      </trkpt>
      <trkpt lat="49.60471" lon="4.97405">
        <ele>267.86</ele>
        <time>2020-09-11T13:47:54Z</time>
      </trkpt>
      <trkpt lat="49.60472" lon="4.97386">
        <ele>267.38</ele>
        <time>2020-09-11T13:48:07Z</time>
      </trkpt>
      <trkpt lat="49.60471" lon="4.97382">
        <ele>267.86</ele>
        <time>2020-09-11T13:48:10Z</time>
      </trkpt>
      <trkpt lat="49.60473" lon="4.97367">
        <ele>267.38</ele>
        <time>2020-09-11T13:48:25Z</time>
      </trkpt>
      <trkpt lat="49.60473" lon="4.97364">
        <ele>267.38</ele>
        <time>2020-09-11T13:48:30Z</time>
      </trkpt>
      <trkpt lat="49.60476" lon="4.97338">
        <ele>265.94</ele>
        <time>2020-09-11T13:48:46Z</time>
      </trkpt>
      <trkpt lat="49.60477" lon="4.97313">
        <ele>260.65</ele>
        <time>2020-09-11T13:49:00Z</time>
      </trkpt>
      <trkpt lat="49.60479" lon="4.97288">
        <ele>257.29</ele>
        <time>2020-09-11T13:49:15Z</time>
      </trkpt>
      <trkpt lat="49.60478" lon="4.97265">
        <ele>255.85</ele>
        <time>2020-09-11T13:49:30Z</time>
      </trkpt>
      <trkpt lat="49.60478" lon="4.97237">
        <ele>252.48</ele>
        <time>2020-09-11T13:49:46Z</time>
      </trkpt>
      <trkpt lat="49.60479" lon="4.9721">
        <ele>251.52</ele>
        <time>2020-09-11T13:50:02Z</time>
      </trkpt>
      <trkpt lat="49.60479" lon="4.97189">
        <ele>250.56</ele>
        <time>2020-09-11T13:50:17Z</time>
      </trkpt>
      <trkpt lat="49.6048" lon="4.9716">
        <ele>248.64</ele>
        <time>2020-09-11T13:50:31Z</time>
      </trkpt>
      <trkpt lat="49.6048" lon="4.97139">
        <ele>247.2</ele>
        <time>2020-09-11T13:50:45Z</time>
      </trkpt>
      <trkpt lat="49.60482" lon="4.97114">
        <ele>247.68</ele>
        <time>2020-09-11T13:50:58Z</time>
      </trkpt>
      <trkpt lat="49.60483" lon="4.97088">
        <ele>246.23</ele>
        <time>2020-09-11T13:51:16Z</time>
      </trkpt>
      <trkpt lat="49.60485" lon="4.9706">
        <ele>244.79</ele>
        <time>2020-09-11T13:51:33Z</time>
      </trkpt>
      <trkpt lat="49.60487" lon="4.97029">
        <ele>245.27</ele>
        <time>2020-09-11T13:51:49Z</time>
      </trkpt>
      <trkpt lat="49.60489" lon="4.96999">
        <ele>243.35</ele>
        <time>2020-09-11T13:52:08Z</time>
      </trkpt>
      <trkpt lat="49.60492" lon="4.96975">
        <ele>243.83</ele>
        <time>2020-09-11T13:52:23Z</time>
      </trkpt>
      <trkpt lat="49.60492" lon="4.96974">
        <ele>243.83</ele>
        <time>2020-09-11T13:52:24Z</time>
      </trkpt>
      <trkpt lat="49.60497" lon="4.96942">
        <ele>246.23</ele>
        <time>2020-09-11T13:52:40Z</time>
      </trkpt>
      <trkpt lat="49.60501" lon="4.96925">
        <ele>249.12</ele>
        <time>2020-09-11T13:52:53Z</time>
      </trkpt>
      <trkpt lat="49.60505" lon="4.9691">
        <ele>250.56</ele>
        <time>2020-09-11T13:53:02Z</time>
      </trkpt>
      <trkpt lat="49.60508" lon="4.96878">
        <ele>251.52</ele>
        <time>2020-09-11T13:53:19Z</time>
      </trkpt>
      <trkpt lat="49.60512" lon="4.96856">
        <ele>255.37</ele>
        <time>2020-09-11T13:53:34Z</time>
      </trkpt>
      <trkpt lat="49.60513" lon="4.96827">
        <ele>254.89</ele>
        <time>2020-09-11T13:53:52Z</time>
      </trkpt>
      <trkpt lat="49.60515" lon="4.96802">
        <ele>257.29</ele>
        <time>2020-09-11T13:54:06Z</time>
      </trkpt>
      <trkpt lat="49.60515" lon="4.96791">
        <ele>255.37</ele>
        <time>2020-09-11T13:54:15Z</time>
      </trkpt>
      <trkpt lat="49.60516" lon="4.9678">
        <ele>254.89</ele>
        <time>2020-09-11T13:54:21Z</time>
      </trkpt>
      <trkpt lat="49.60516" lon="4.96777">
        <ele>254.89</ele>
        <time>2020-09-11T13:54:23Z</time>
      </trkpt>
      <trkpt lat="49.60519" lon="4.96753">
        <ele>254.89</ele>
        <time>2020-09-11T13:54:36Z</time>
      </trkpt>
      <trkpt lat="49.60526" lon="4.96727">
        <ele>258.73</ele>
        <time>2020-09-11T13:54:50Z</time>
      </trkpt>
      <trkpt lat="49.60526" lon="4.96714">
        <ele>257.77</ele>
        <time>2020-09-11T13:55:02Z</time>
      </trkpt>
      <trkpt lat="49.60524" lon="4.96708">
        <ele>256.33</ele>
        <time>2020-09-11T13:55:05Z</time>
      </trkpt>
      <trkpt lat="49.60522" lon="4.96686">
        <ele>254.41</ele>
        <time>2020-09-11T13:55:17Z</time>
      </trkpt>
      <trkpt lat="49.60519" lon="4.96666">
        <ele>251.52</ele>
        <time>2020-09-11T13:55:31Z</time>
      </trkpt>
      <trkpt lat="49.60518" lon="4.9664">
        <ele>250.08</ele>
        <time>2020-09-11T13:55:47Z</time>
      </trkpt>
      <trkpt lat="49.60521" lon="4.96626">
        <ele>251.52</ele>
        <time>2020-09-11T13:55:55Z</time>
      </trkpt>
      <trkpt lat="49.60522" lon="4.96611">
        <ele>251.52</ele>
        <time>2020-09-11T13:56:08Z</time>
      </trkpt>
      <trkpt lat="49.60525" lon="4.96577">
        <ele>252</ele>
        <time>2020-09-11T13:56:25Z</time>
      </trkpt>
      <trkpt lat="49.60528" lon="4.96553">
        <ele>253.44</ele>
        <time>2020-09-11T13:56:41Z</time>
      </trkpt>
      <trkpt lat="49.6053" lon="4.96535">
        <ele>252.96</ele>
        <time>2020-09-11T13:56:53Z</time>
      </trkpt>
      <trkpt lat="49.6053" lon="4.96507">
        <ele>251.52</ele>
        <time>2020-09-11T13:57:07Z</time>
      </trkpt>
      <trkpt lat="49.60529" lon="4.96496">
        <ele>250.56</ele>
        <time>2020-09-11T13:57:15Z</time>
      </trkpt>
      <trkpt lat="49.60529" lon="4.96487">
        <ele>249.6</ele>
        <time>2020-09-11T13:57:20Z</time>
      </trkpt>
      <trkpt lat="49.60532" lon="4.96464">
        <ele>250.08</ele>
        <time>2020-09-11T13:57:37Z</time>
      </trkpt>
      <trkpt lat="49.60533" lon="4.96442">
        <ele>252</ele>
        <time>2020-09-11T13:57:49Z</time>
      </trkpt>
      <trkpt lat="49.60533" lon="4.96418">
        <ele>248.64</ele>
        <time>2020-09-11T13:58:06Z</time>
      </trkpt>
      <trkpt lat="49.60533" lon="4.96403">
        <ele>247.2</ele>
        <time>2020-09-11T13:58:14Z</time>
      </trkpt>
      <trkpt lat="49.60533" lon="4.96391">
        <ele>247.68</ele>
        <time>2020-09-11T13:58:20Z</time>
      </trkpt>
      <trkpt lat="49.60533" lon="4.96369">
        <ele>246.72</ele>
        <time>2020-09-11T13:58:32Z</time>
      </trkpt>
      <trkpt lat="49.60534" lon="4.96351">
        <ele>244.79</ele>
        <time>2020-09-11T13:58:46Z</time>
      </trkpt>
      <trkpt lat="49.60538" lon="4.96327">
        <ele>252</ele>
        <time>2020-09-11T13:59:02Z</time>
      </trkpt>
      <trkpt lat="49.6054" lon="4.96315">
        <ele>254.41</ele>
        <time>2020-09-11T13:59:13Z</time>
      </trkpt>
      <trkpt lat="49.60543" lon="4.96276">
        <ele>252</ele>
        <time>2020-09-11T13:59:30Z</time>
      </trkpt>
      <trkpt lat="49.6054" lon="4.96252">
        <ele>244.31</ele>
        <time>2020-09-11T13:59:47Z</time>
      </trkpt>
      <trkpt lat="49.60538" lon="4.9622">
        <ele>243.83</ele>
        <time>2020-09-11T14:00:05Z</time>
      </trkpt>
      <trkpt lat="49.60536" lon="4.9619">
        <ele>241.91</ele>
        <time>2020-09-11T14:00:22Z</time>
      </trkpt>
      <trkpt lat="49.60531" lon="4.96164">
        <ele>234.7</ele>
        <time>2020-09-11T14:00:41Z</time>
      </trkpt>
      <trkpt lat="49.60526" lon="4.96137">
        <ele>231.81</ele>
        <time>2020-09-11T14:00:57Z</time>
      </trkpt>
      <trkpt lat="49.60526" lon="4.96131">
        <ele>231.33</ele>
        <time>2020-09-11T14:01:12Z</time>
      </trkpt>
      <trkpt lat="49.60525" lon="4.9613">
        <ele>230.85</ele>
        <time>2020-09-11T14:01:22Z</time>
      </trkpt>
      <trkpt lat="49.60532" lon="4.9613">
        <ele>227.49</ele>
        <time>2020-09-11T14:01:37Z</time>
      </trkpt>
      <trkpt lat="49.60536" lon="4.96145">
        <ele>221.72</ele>
        <time>2020-09-11T14:01:54Z</time>
      </trkpt>
      <trkpt lat="49.60537" lon="4.96146">
        <ele>221.72</ele>
        <time>2020-09-11T14:01:55Z</time>
      </trkpt>
      <trkpt lat="49.60541" lon="4.96166">
        <ele>220.28</ele>
        <time>2020-09-11T14:02:11Z</time>
      </trkpt>
      <trkpt lat="49.60545" lon="4.96181">
        <ele>220.76</ele>
        <time>2020-09-11T14:02:23Z</time>
      </trkpt>
      <trkpt lat="49.60546" lon="4.96197">
        <ele>221.24</ele>
        <time>2020-09-11T14:02:34Z</time>
      </trkpt>
      <trkpt lat="49.60548" lon="4.9622">
        <ele>221.72</ele>
        <time>2020-09-11T14:02:48Z</time>
      </trkpt>
      <trkpt lat="49.60548" lon="4.96242">
        <ele>222.68</ele>
        <time>2020-09-11T14:03:00Z</time>
      </trkpt>
      <trkpt lat="49.60552" lon="4.96268">
        <ele>225.57</ele>
        <time>2020-09-11T14:03:16Z</time>
      </trkpt>
      <trkpt lat="49.60554" lon="4.96297">
        <ele>226.53</ele>
        <time>2020-09-11T14:03:31Z</time>
      </trkpt>
      <trkpt lat="49.60555" lon="4.96305">
        <ele>225.09</ele>
        <time>2020-09-11T14:03:39Z</time>
      </trkpt>
      <trkpt lat="49.60555" lon="4.96331">
        <ele>222.2</ele>
        <time>2020-09-11T14:03:52Z</time>
      </trkpt>
      <trkpt lat="49.60556" lon="4.96352">
        <ele>224.12</ele>
        <time>2020-09-11T14:04:06Z</time>
      </trkpt>
      <trkpt lat="49.60557" lon="4.96355">
        <ele>224.61</ele>
        <time>2020-09-11T14:04:09Z</time>
      </trkpt>
      <trkpt lat="49.60558" lon="4.96384">
        <ele>226.05</ele>
        <time>2020-09-11T14:04:24Z</time>
      </trkpt>
      <trkpt lat="49.60558" lon="4.96407">
        <ele>225.57</ele>
        <time>2020-09-11T14:04:40Z</time>
      </trkpt>
      <trkpt lat="49.60559" lon="4.96411">
        <ele>224.61</ele>
        <time>2020-09-11T14:04:43Z</time>
      </trkpt>
      <trkpt lat="49.60559" lon="4.96419">
        <ele>224.12</ele>
        <time>2020-09-11T14:04:47Z</time>
      </trkpt>
      <trkpt lat="49.6056" lon="4.96449">
        <ele>221.24</ele>
        <time>2020-09-11T14:05:06Z</time>
      </trkpt>
      <trkpt lat="49.60562" lon="4.96471">
        <ele>219.32</ele>
        <time>2020-09-11T14:05:17Z</time>
      </trkpt>
      <trkpt lat="49.60567" lon="4.96496">
        <ele>218.84</ele>
        <time>2020-09-11T14:05:34Z</time>
      </trkpt>
      <trkpt lat="49.60572" lon="4.9652">
        <ele>219.32</ele>
        <time>2020-09-11T14:05:48Z</time>
      </trkpt>
      <trkpt lat="49.60574" lon="4.96546">
        <ele>221.24</ele>
        <time>2020-09-11T14:06:04Z</time>
      </trkpt>
      <trkpt lat="49.60579" lon="4.96568">
        <ele>219.32</ele>
        <time>2020-09-11T14:06:18Z</time>
      </trkpt>
      <trkpt lat="49.60585" lon="4.96596">
        <ele>217.88</ele>
        <time>2020-09-11T14:06:35Z</time>
      </trkpt>
      <trkpt lat="49.60591" lon="4.96622">
        <ele>213.07</ele>
        <time>2020-09-11T14:06:52Z</time>
      </trkpt>
      <trkpt lat="49.60597" lon="4.96644">
        <ele>211.63</ele>
        <time>2020-09-11T14:07:06Z</time>
      </trkpt>
      <trkpt lat="49.60598" lon="4.96651">
        <ele>210.67</ele>
        <time>2020-09-11T14:07:10Z</time>
      </trkpt>
      <trkpt lat="49.60604" lon="4.96673">
        <ele>210.67</ele>
        <time>2020-09-11T14:07:25Z</time>
      </trkpt>
      <trkpt lat="49.60613" lon="4.96703">
        <ele>209.22</ele>
        <time>2020-09-11T14:07:42Z</time>
      </trkpt>
      <trkpt lat="49.6062" lon="4.96725">
        <ele>208.26</ele>
        <time>2020-09-11T14:07:58Z</time>
      </trkpt>
      <trkpt lat="49.60627" lon="4.9675">
        <ele>209.7</ele>
        <time>2020-09-11T14:08:13Z</time>
      </trkpt>
      <trkpt lat="49.60634" lon="4.96769">
        <ele>211.15</ele>
        <time>2020-09-11T14:08:27Z</time>
      </trkpt>
      <trkpt lat="49.60636" lon="4.96774">
        <ele>211.15</ele>
        <time>2020-09-11T14:08:30Z</time>
      </trkpt>
      <trkpt lat="49.60641" lon="4.96793">
        <ele>214.51</ele>
        <time>2020-09-11T14:08:43Z</time>
      </trkpt>
      <trkpt lat="49.60645" lon="4.96807">
        <ele>218.36</ele>
        <time>2020-09-11T14:08:54Z</time>
      </trkpt>
      <trkpt lat="49.6065" lon="4.96829">
        <ele>219.32</ele>
        <time>2020-09-11T14:09:07Z</time>
      </trkpt>
      <trkpt lat="49.60655" lon="4.96842">
        <ele>220.28</ele>
        <time>2020-09-11T14:09:19Z</time>
      </trkpt>
      <trkpt lat="49.60661" lon="4.96864">
        <ele>224.61</ele>
        <time>2020-09-11T14:09:33Z</time>
      </trkpt>
      <trkpt lat="49.60667" lon="4.96881">
        <ele>229.89</ele>
        <time>2020-09-11T14:09:47Z</time>
      </trkpt>
      <trkpt lat="49.60671" lon="4.96892">
        <ele>230.85</ele>
        <time>2020-09-11T14:09:57Z</time>
      </trkpt>
      <trkpt lat="49.60674" lon="4.96905">
        <ele>232.3</ele>
        <time>2020-09-11T14:10:06Z</time>
      </trkpt>
      <trkpt lat="49.60678" lon="4.96915">
        <ele>235.66</ele>
        <time>2020-09-11T14:10:21Z</time>
      </trkpt>
      <trkpt lat="49.60678" lon="4.96918">
        <ele>236.62</ele>
        <time>2020-09-11T14:10:35Z</time>
      </trkpt>
      <trkpt lat="49.60678" lon="4.96935">
        <ele>240.95</ele>
        <time>2020-09-11T14:10:49Z</time>
      </trkpt>
      <trkpt lat="49.60679" lon="4.96952">
        <ele>244.31</ele>
        <time>2020-09-11T14:11:01Z</time>
      </trkpt>
      <trkpt lat="49.6068" lon="4.96955">
        <ele>245.27</ele>
        <time>2020-09-11T14:11:04Z</time>
      </trkpt>
      <trkpt lat="49.60682" lon="4.9698">
        <ele>247.2</ele>
        <time>2020-09-11T14:11:17Z</time>
      </trkpt>
      <trkpt lat="49.60682" lon="4.97003">
        <ele>246.23</ele>
        <time>2020-09-11T14:11:28Z</time>
      </trkpt>
      <trkpt lat="49.60681" lon="4.97006">
        <ele>245.75</ele>
        <time>2020-09-11T14:11:31Z</time>
      </trkpt>
      <trkpt lat="49.60683" lon="4.9703">
        <ele>242.39</ele>
        <time>2020-09-11T14:11:45Z</time>
      </trkpt>
      <trkpt lat="49.60684" lon="4.97049">
        <ele>240.95</ele>
        <time>2020-09-11T14:11:56Z</time>
      </trkpt>
      <trkpt lat="49.60685" lon="4.97068">
        <ele>239.99</ele>
        <time>2020-09-11T14:12:08Z</time>
      </trkpt>
      <trkpt lat="49.60685" lon="4.97087">
        <ele>241.43</ele>
        <time>2020-09-11T14:12:20Z</time>
      </trkpt>
      <trkpt lat="49.60685" lon="4.97108">
        <ele>241.91</ele>
        <time>2020-09-11T14:12:32Z</time>
      </trkpt>
      <trkpt lat="49.60684" lon="4.97128">
        <ele>243.83</ele>
        <time>2020-09-11T14:12:45Z</time>
      </trkpt>
      <trkpt lat="49.60684" lon="4.97149">
        <ele>245.27</ele>
        <time>2020-09-11T14:12:57Z</time>
      </trkpt>
      <trkpt lat="49.60684" lon="4.97167">
        <ele>245.75</ele>
        <time>2020-09-11T14:13:09Z</time>
      </trkpt>
      <trkpt lat="49.60685" lon="4.97185">
        <ele>247.2</ele>
        <time>2020-09-11T14:13:20Z</time>
      </trkpt>
      <trkpt lat="49.60685" lon="4.97199">
        <ele>248.64</ele>
        <time>2020-09-11T14:13:29Z</time>
      </trkpt>
      <trkpt lat="49.60686" lon="4.97209">
        <ele>250.56</ele>
        <time>2020-09-11T14:13:36Z</time>
      </trkpt>
      <trkpt lat="49.60687" lon="4.97223">
        <ele>253.44</ele>
        <time>2020-09-11T14:13:46Z</time>
      </trkpt>
      <trkpt lat="49.60688" lon="4.97234">
        <ele>253.93</ele>
        <time>2020-09-11T14:13:54Z</time>
      </trkpt>
      <trkpt lat="49.60691" lon="4.9725">
        <ele>259.69</ele>
        <time>2020-09-11T14:14:07Z</time>
      </trkpt>
      <trkpt lat="49.60693" lon="4.97268">
        <ele>262.1</ele>
        <time>2020-09-11T14:14:19Z</time>
      </trkpt>
      <trkpt lat="49.60694" lon="4.97277">
        <ele>264.5</ele>
        <time>2020-09-11T14:14:26Z</time>
      </trkpt>
      <trkpt lat="49.607" lon="4.97296">
        <ele>267.86</ele>
        <time>2020-09-11T14:14:40Z</time>
      </trkpt>
      <trkpt lat="49.60702" lon="4.97306">
        <ele>270.27</ele>
        <time>2020-09-11T14:14:48Z</time>
      </trkpt>
      <trkpt lat="49.60704" lon="4.97308">
        <ele>270.75</ele>
        <time>2020-09-11T14:14:50Z</time>
      </trkpt>
      <trkpt lat="49.6071" lon="4.97328">
        <ele>272.19</ele>
        <time>2020-09-11T14:15:04Z</time>
      </trkpt>
      <trkpt lat="49.60714" lon="4.97343">
        <ele>272.19</ele>
        <time>2020-09-11T14:15:14Z</time>
      </trkpt>
      <trkpt lat="49.60719" lon="4.97359">
        <ele>272.19</ele>
        <time>2020-09-11T14:15:26Z</time>
      </trkpt>
      <trkpt lat="49.60721" lon="4.97362">
        <ele>269.79</ele>
        <time>2020-09-11T14:15:48Z</time>
      </trkpt>
      <trkpt lat="49.60721" lon="4.97363">
        <ele>269.79</ele>
        <time>2020-09-11T14:15:49Z</time>
      </trkpt>
      <trkpt lat="49.60725" lon="4.97372">
        <ele>268.83</ele>
        <time>2020-09-11T14:15:55Z</time>
      </trkpt>
      <trkpt lat="49.6073" lon="4.97391">
        <ele>269.79</ele>
        <time>2020-09-11T14:16:06Z</time>
      </trkpt>
      <trkpt lat="49.60731" lon="4.97399">
        <ele>271.23</ele>
        <time>2020-09-11T14:16:13Z</time>
      </trkpt>
      <trkpt lat="49.60737" lon="4.97417">
        <ele>275.07</ele>
        <time>2020-09-11T14:16:27Z</time>
      </trkpt>
      <trkpt lat="49.6074" lon="4.97421">
        <ele>276.52</ele>
        <time>2020-09-11T14:16:30Z</time>
      </trkpt>
      <trkpt lat="49.60745" lon="4.97435">
        <ele>279.88</ele>
        <time>2020-09-11T14:16:43Z</time>
      </trkpt>
      <trkpt lat="49.6075" lon="4.97447">
        <ele>282.28</ele>
        <time>2020-09-11T14:16:55Z</time>
      </trkpt>
      <trkpt lat="49.60754" lon="4.97456">
        <ele>284.21</ele>
        <time>2020-09-11T14:17:02Z</time>
      </trkpt>
      <trkpt lat="49.60757" lon="4.97467">
        <ele>284.69</ele>
        <time>2020-09-11T14:17:09Z</time>
      </trkpt>
      <trkpt lat="49.60761" lon="4.9748">
        <ele>283.73</ele>
        <time>2020-09-11T14:17:17Z</time>
      </trkpt>
      <trkpt lat="49.60766" lon="4.97494">
        <ele>283.25</ele>
        <time>2020-09-11T14:17:26Z</time>
      </trkpt>
      <trkpt lat="49.60766" lon="4.97506">
        <ele>282.77</ele>
        <time>2020-09-11T14:17:39Z</time>
      </trkpt>
      <trkpt lat="49.60771" lon="4.97529">
        <ele>280.84</ele>
        <time>2020-09-11T14:17:53Z</time>
      </trkpt>
      <trkpt lat="49.60772" lon="4.97536">
        <ele>280.36</ele>
        <time>2020-09-11T14:18:05Z</time>
      </trkpt>
      <trkpt lat="49.60774" lon="4.97542">
        <ele>279.88</ele>
        <time>2020-09-11T14:18:19Z</time>
      </trkpt>
      <trkpt lat="49.60777" lon="4.97556">
        <ele>279.4</ele>
        <time>2020-09-11T14:18:30Z</time>
      </trkpt>
      <trkpt lat="49.60781" lon="4.9757">
        <ele>279.88</ele>
        <time>2020-09-11T14:18:41Z</time>
      </trkpt>
      <trkpt lat="49.60785" lon="4.97579">
        <ele>281.32</ele>
        <time>2020-09-11T14:18:53Z</time>
      </trkpt>
      <trkpt lat="49.60792" lon="4.97592">
        <ele>280.36</ele>
        <time>2020-09-11T14:19:05Z</time>
      </trkpt>
      <trkpt lat="49.608" lon="4.9761">
        <ele>282.28</ele>
        <time>2020-09-11T14:19:17Z</time>
      </trkpt>
      <trkpt lat="49.60806" lon="4.97626">
        <ele>283.73</ele>
        <time>2020-09-11T14:19:30Z</time>
      </trkpt>
      <trkpt lat="49.6081" lon="4.9765">
        <ele>287.09</ele>
        <time>2020-09-11T14:19:44Z</time>
      </trkpt>
      <trkpt lat="49.60813" lon="4.97674">
        <ele>286.13</ele>
        <time>2020-09-11T14:19:58Z</time>
      </trkpt>
      <trkpt lat="49.60816" lon="4.97693">
        <ele>287.09</ele>
        <time>2020-09-11T14:20:14Z</time>
      </trkpt>
      <trkpt lat="49.6082" lon="4.9771">
        <ele>288.53</ele>
        <time>2020-09-11T14:20:27Z</time>
      </trkpt>
      <trkpt lat="49.60823" lon="4.9773">
        <ele>290.94</ele>
        <time>2020-09-11T14:20:39Z</time>
      </trkpt>
      <trkpt lat="49.60828" lon="4.97748">
        <ele>294.78</ele>
        <time>2020-09-11T14:20:53Z</time>
      </trkpt>
      <trkpt lat="49.60832" lon="4.97763">
        <ele>296.22</ele>
        <time>2020-09-11T14:21:04Z</time>
      </trkpt>
      <trkpt lat="49.60833" lon="4.97772">
        <ele>295.74</ele>
        <time>2020-09-11T14:21:18Z</time>
      </trkpt>
      <trkpt lat="49.6084" lon="4.97794">
        <ele>295.74</ele>
        <time>2020-09-11T14:21:33Z</time>
      </trkpt>
      <trkpt lat="49.60844" lon="4.97819">
        <ele>297.18</ele>
        <time>2020-09-11T14:21:49Z</time>
      </trkpt>
      <trkpt lat="49.60848" lon="4.97846">
        <ele>301.99</ele>
        <time>2020-09-11T14:22:05Z</time>
      </trkpt>
      <trkpt lat="49.60855" lon="4.97868">
        <ele>306.8</ele>
        <time>2020-09-11T14:22:20Z</time>
      </trkpt>
      <trkpt lat="49.60862" lon="4.97882">
        <ele>308.24</ele>
        <time>2020-09-11T14:22:31Z</time>
      </trkpt>
      <trkpt lat="49.60868" lon="4.97901">
        <ele>308.72</ele>
        <time>2020-09-11T14:22:46Z</time>
      </trkpt>
      <trkpt lat="49.60876" lon="4.97921">
        <ele>311.12</ele>
        <time>2020-09-11T14:23:01Z</time>
      </trkpt>
      <trkpt lat="49.60882" lon="4.97937">
        <ele>311.12</ele>
        <time>2020-09-11T14:23:14Z</time>
      </trkpt>
      <trkpt lat="49.60894" lon="4.97953">
        <ele>313.05</ele>
        <time>2020-09-11T14:23:28Z</time>
      </trkpt>
      <trkpt lat="49.60902" lon="4.9797">
        <ele>313.53</ele>
        <time>2020-09-11T14:23:42Z</time>
      </trkpt>
      <trkpt lat="49.60911" lon="4.97985">
        <ele>314.97</ele>
        <time>2020-09-11T14:23:57Z</time>
      </trkpt>
      <trkpt lat="49.60917" lon="4.97993">
        <ele>315.45</ele>
        <time>2020-09-11T14:24:05Z</time>
      </trkpt>
      <trkpt lat="49.60929" lon="4.98006">
        <ele>316.89</ele>
        <time>2020-09-11T14:24:18Z</time>
      </trkpt>
      <trkpt lat="49.6094" lon="4.98025">
        <ele>317.37</ele>
        <time>2020-09-11T14:24:33Z</time>
      </trkpt>
      <trkpt lat="49.60951" lon="4.9804">
        <ele>320.26</ele>
        <time>2020-09-11T14:24:48Z</time>
      </trkpt>
      <trkpt lat="49.60959" lon="4.98054">
        <ele>323.14</ele>
        <time>2020-09-11T14:25:02Z</time>
      </trkpt>
      <trkpt lat="49.60973" lon="4.98066">
        <ele>324.1</ele>
        <time>2020-09-11T14:25:17Z</time>
      </trkpt>
      <trkpt lat="49.60974" lon="4.98067">
        <ele>323.62</ele>
        <time>2020-09-11T14:25:18Z</time>
      </trkpt>
      <trkpt lat="49.60987" lon="4.98078">
        <ele>323.14</ele>
        <time>2020-09-11T14:25:33Z</time>
      </trkpt>
      <trkpt lat="49.60997" lon="4.98085">
        <ele>322.66</ele>
        <time>2020-09-11T14:25:47Z</time>
      </trkpt>
      <trkpt lat="49.61016" lon="4.98071">
        <ele>322.18</ele>
        <time>2020-09-11T14:26:04Z</time>
      </trkpt>
      <trkpt lat="49.61031" lon="4.98056">
        <ele>320.74</ele>
        <time>2020-09-11T14:26:20Z</time>
      </trkpt>
      <trkpt lat="49.61038" lon="4.9805">
        <ele>321.22</ele>
        <time>2020-09-11T14:26:28Z</time>
      </trkpt>
      <trkpt lat="49.61045" lon="4.98039">
        <ele>322.66</ele>
        <time>2020-09-11T14:26:38Z</time>
      </trkpt>
      <trkpt lat="49.61061" lon="4.98025">
        <ele>322.66</ele>
        <time>2020-09-11T14:26:53Z</time>
      </trkpt>
      <trkpt lat="49.61071" lon="4.9801">
        <ele>322.66</ele>
        <time>2020-09-11T14:27:08Z</time>
      </trkpt>
      <trkpt lat="49.61083" lon="4.97995">
        <ele>321.7</ele>
        <time>2020-09-11T14:27:21Z</time>
      </trkpt>
      <trkpt lat="49.61088" lon="4.97986">
        <ele>319.78</ele>
        <time>2020-09-11T14:27:29Z</time>
      </trkpt>
      <trkpt lat="49.61098" lon="4.97969">
        <ele>319.3</ele>
        <time>2020-09-11T14:27:43Z</time>
      </trkpt>
      <trkpt lat="49.611" lon="4.97966">
        <ele>319.3</ele>
        <time>2020-09-11T14:27:46Z</time>
      </trkpt>
      <trkpt lat="49.61111" lon="4.97954">
        <ele>318.33</ele>
        <time>2020-09-11T14:28:00Z</time>
      </trkpt>
      <trkpt lat="49.61119" lon="4.97942">
        <ele>315.93</ele>
        <time>2020-09-11T14:28:13Z</time>
      </trkpt>
      <trkpt lat="49.61129" lon="4.97924">
        <ele>317.85</ele>
        <time>2020-09-11T14:28:30Z</time>
      </trkpt>
      <trkpt lat="49.61137" lon="4.9791">
        <ele>318.81</ele>
        <time>2020-09-11T14:28:43Z</time>
      </trkpt>
      <trkpt lat="49.61143" lon="4.97898">
        <ele>321.22</ele>
        <time>2020-09-11T14:28:56Z</time>
      </trkpt>
      <trkpt lat="49.61154" lon="4.97886">
        <ele>321.22</ele>
        <time>2020-09-11T14:29:10Z</time>
      </trkpt>
      <trkpt lat="49.61166" lon="4.97873">
        <ele>321.7</ele>
        <time>2020-09-11T14:29:26Z</time>
      </trkpt>
      <trkpt lat="49.61177" lon="4.97859">
        <ele>323.14</ele>
        <time>2020-09-11T14:29:42Z</time>
      </trkpt>
      <trkpt lat="49.61192" lon="4.9784">
        <ele>324.58</ele>
        <time>2020-09-11T14:29:57Z</time>
      </trkpt>
      <trkpt lat="49.61204" lon="4.97823">
        <ele>325.06</ele>
        <time>2020-09-11T14:30:13Z</time>
      </trkpt>
      <trkpt lat="49.61214" lon="4.97808">
        <ele>323.62</ele>
        <time>2020-09-11T14:30:26Z</time>
      </trkpt>
      <trkpt lat="49.6122" lon="4.97797">
        <ele>321.7</ele>
        <time>2020-09-11T14:30:36Z</time>
      </trkpt>
      <trkpt lat="49.61223" lon="4.97791">
        <ele>318.33</ele>
        <time>2020-09-11T14:30:52Z</time>
      </trkpt>
      <trkpt lat="49.61223" lon="4.97789">
        <ele>313.53</ele>
        <time>2020-09-11T14:31:12Z</time>
      </trkpt>
      <trkpt lat="49.61223" lon="4.97787">
        <ele>313.53</ele>
        <time>2020-09-11T14:31:31Z</time>
      </trkpt>
      <trkpt lat="49.61224" lon="4.97785">
        <ele>311.6</ele>
        <time>2020-09-11T14:31:49Z</time>
      </trkpt>
      <trkpt lat="49.61224" lon="4.97785">
        <ele>309.2</ele>
        <time>2020-09-11T14:32:20Z</time>
      </trkpt>
      <trkpt lat="49.61222" lon="4.97785">
        <ele>307.76</ele>
        <time>2020-09-11T14:32:59Z</time>
      </trkpt>
      <trkpt lat="49.61222" lon="4.97784">
        <ele>306.8</ele>
        <time>2020-09-11T14:33:33Z</time>
      </trkpt>
      <trkpt lat="49.61221" lon="4.97784">
        <ele>306.8</ele>
        <time>2020-09-11T14:34:05Z</time>
      </trkpt>
      <trkpt lat="49.61222" lon="4.97783">
        <ele>306.8</ele>
        <time>2020-09-11T14:34:35Z</time>
      </trkpt>
      <trkpt lat="49.61224" lon="4.97783">
        <ele>306.32</ele>
        <time>2020-09-11T14:35:08Z</time>
      </trkpt>
      <trkpt lat="49.61226" lon="4.97782">
        <ele>306.32</ele>
        <time>2020-09-11T14:35:35Z</time>
      </trkpt>
      <trkpt lat="49.61226" lon="4.97783">
        <ele>306.8</ele>
        <time>2020-09-11T14:36:03Z</time>
      </trkpt>
      <trkpt lat="49.61226" lon="4.97783">
        <ele>306.32</ele>
        <time>2020-09-11T14:36:24Z</time>
      </trkpt>
      <trkpt lat="49.61226" lon="4.97783">
        <ele>306.32</ele>
        <time>2020-09-11T14:36:53Z</time>
      </trkpt>
      <trkpt lat="49.6122" lon="4.97781">
        <ele>306.32</ele>
        <time>2020-09-11T14:37:14Z</time>
      </trkpt>
      <trkpt lat="49.61213" lon="4.97793">
        <ele>302.95</ele>
        <time>2020-09-11T14:37:39Z</time>
      </trkpt>
      <trkpt lat="49.61224" lon="4.97786">
        <ele>301.03</ele>
        <time>2020-09-11T14:38:02Z</time>
      </trkpt>
      <trkpt lat="49.61223" lon="4.97784">
        <ele>299.11</ele>
        <time>2020-09-11T14:38:19Z</time>
      </trkpt>
      <trkpt lat="49.61224" lon="4.97785">
        <ele>299.11</ele>
        <time>2020-09-11T14:38:42Z</time>
      </trkpt>
      <trkpt lat="49.61224" lon="4.97785">
        <ele>298.63</ele>
        <time>2020-09-11T14:39:09Z</time>
      </trkpt>
      <trkpt lat="49.61224" lon="4.97787">
        <ele>298.63</ele>
        <time>2020-09-11T14:39:29Z</time>
      </trkpt>
      <trkpt lat="49.6123" lon="4.97784">
        <ele>298.15</ele>
        <time>2020-09-11T14:39:44Z</time>
      </trkpt>
      <trkpt lat="49.61231" lon="4.97783">
        <ele>298.15</ele>
        <time>2020-09-11T14:39:47Z</time>
      </trkpt>
      <trkpt lat="49.61239" lon="4.97781">
        <ele>296.22</ele>
        <time>2020-09-11T14:40:00Z</time>
      </trkpt>
      <trkpt lat="49.61244" lon="4.97779">
        <ele>294.78</ele>
        <time>2020-09-11T14:40:06Z</time>
      </trkpt>
      <trkpt lat="49.61257" lon="4.97771">
        <ele>293.82</ele>
        <time>2020-09-11T14:40:20Z</time>
      </trkpt>
      <trkpt lat="49.61274" lon="4.97759">
        <ele>290.46</ele>
        <time>2020-09-11T14:40:37Z</time>
      </trkpt>
      <trkpt lat="49.61281" lon="4.97756">
        <ele>289.49</ele>
        <time>2020-09-11T14:40:50Z</time>
      </trkpt>
      <trkpt lat="49.61293" lon="4.97747">
        <ele>288.53</ele>
        <time>2020-09-11T14:41:05Z</time>
      </trkpt>
      <trkpt lat="49.61308" lon="4.97735">
        <ele>285.17</ele>
        <time>2020-09-11T14:41:20Z</time>
      </trkpt>
      <trkpt lat="49.61322" lon="4.97723">
        <ele>281.8</ele>
        <time>2020-09-11T14:41:35Z</time>
      </trkpt>
      <trkpt lat="49.61331" lon="4.97715">
        <ele>277.96</ele>
        <time>2020-09-11T14:41:49Z</time>
      </trkpt>
      <trkpt lat="49.61345" lon="4.977">
        <ele>277.48</ele>
        <time>2020-09-11T14:42:04Z</time>
      </trkpt>
      <trkpt lat="49.61355" lon="4.97689">
        <ele>277.48</ele>
        <time>2020-09-11T14:42:17Z</time>
      </trkpt>
      <trkpt lat="49.6137" lon="4.97674">
        <ele>277.96</ele>
        <time>2020-09-11T14:42:34Z</time>
      </trkpt>
      <trkpt lat="49.61381" lon="4.97664">
        <ele>276.04</ele>
        <time>2020-09-11T14:42:50Z</time>
      </trkpt>
      <trkpt lat="49.61391" lon="4.97657">
        <ele>276.04</ele>
        <time>2020-09-11T14:43:05Z</time>
      </trkpt>
      <trkpt lat="49.61406" lon="4.97641">
        <ele>274.59</ele>
        <time>2020-09-11T14:43:21Z</time>
      </trkpt>
      <trkpt lat="49.61408" lon="4.97638">
        <ele>274.11</ele>
        <time>2020-09-11T14:43:24Z</time>
      </trkpt>
      <trkpt lat="49.6142" lon="4.97618">
        <ele>269.31</ele>
        <time>2020-09-11T14:43:41Z</time>
      </trkpt>
      <trkpt lat="49.61436" lon="4.97599">
        <ele>271.23</ele>
        <time>2020-09-11T14:44:00Z</time>
      </trkpt>
      <trkpt lat="49.61445" lon="4.97588">
        <ele>270.75</ele>
        <time>2020-09-11T14:44:10Z</time>
      </trkpt>
      <trkpt lat="49.61449" lon="4.97584">
        <ele>271.23</ele>
        <time>2020-09-11T14:44:15Z</time>
      </trkpt>
      <trkpt lat="49.61462" lon="4.97563">
        <ele>267.38</ele>
        <time>2020-09-11T14:44:33Z</time>
      </trkpt>
      <trkpt lat="49.61472" lon="4.97551">
        <ele>266.9</ele>
        <time>2020-09-11T14:44:48Z</time>
      </trkpt>
      <trkpt lat="49.61486" lon="4.97536">
        <ele>264.02</ele>
        <time>2020-09-11T14:45:04Z</time>
      </trkpt>
      <trkpt lat="49.61496" lon="4.97522">
        <ele>260.65</ele>
        <time>2020-09-11T14:45:18Z</time>
      </trkpt>
      <trkpt lat="49.61504" lon="4.97509">
        <ele>258.25</ele>
        <time>2020-09-11T14:45:29Z</time>
      </trkpt>
      <trkpt lat="49.61515" lon="4.97493">
        <ele>255.37</ele>
        <time>2020-09-11T14:45:45Z</time>
      </trkpt>
      <trkpt lat="49.61524" lon="4.97476">
        <ele>252</ele>
        <time>2020-09-11T14:46:01Z</time>
      </trkpt>
      <trkpt lat="49.61539" lon="4.97456">
        <ele>250.56</ele>
        <time>2020-09-11T14:46:17Z</time>
      </trkpt>
      <trkpt lat="49.61552" lon="4.97436">
        <ele>250.56</ele>
        <time>2020-09-11T14:46:34Z</time>
      </trkpt>
      <trkpt lat="49.61566" lon="4.97415">
        <ele>251.04</ele>
        <time>2020-09-11T14:46:52Z</time>
      </trkpt>
      <trkpt lat="49.61583" lon="4.9739">
        <ele>253.44</ele>
        <time>2020-09-11T14:47:10Z</time>
      </trkpt>
      <trkpt lat="49.61593" lon="4.97374">
        <ele>252</ele>
        <time>2020-09-11T14:47:25Z</time>
      </trkpt>
      <trkpt lat="49.6161" lon="4.97352">
        <ele>253.44</ele>
        <time>2020-09-11T14:47:44Z</time>
      </trkpt>
      <trkpt lat="49.61625" lon="4.97331">
        <ele>253.93</ele>
        <time>2020-09-11T14:48:03Z</time>
      </trkpt>
      <trkpt lat="49.61627" lon="4.97327">
        <ele>254.89</ele>
        <time>2020-09-11T14:48:06Z</time>
      </trkpt>
      <trkpt lat="49.6163" lon="4.97325">
        <ele>255.37</ele>
        <time>2020-09-11T14:48:10Z</time>
      </trkpt>
      <trkpt lat="49.61644" lon="4.97307">
        <ele>256.33</ele>
        <time>2020-09-11T14:48:26Z</time>
      </trkpt>
      <trkpt lat="49.61658" lon="4.97289">
        <ele>255.37</ele>
        <time>2020-09-11T14:48:43Z</time>
      </trkpt>
      <trkpt lat="49.61668" lon="4.97274">
        <ele>253.93</ele>
        <time>2020-09-11T14:48:58Z</time>
      </trkpt>
      <trkpt lat="49.61683" lon="4.9725">
        <ele>254.41</ele>
        <time>2020-09-11T14:49:16Z</time>
      </trkpt>
      <trkpt lat="49.61692" lon="4.9723">
        <ele>252.48</ele>
        <time>2020-09-11T14:49:32Z</time>
      </trkpt>
      <trkpt lat="49.61708" lon="4.97205">
        <ele>252.48</ele>
        <time>2020-09-11T14:49:51Z</time>
      </trkpt>
      <trkpt lat="49.6172" lon="4.97187">
        <ele>252.96</ele>
        <time>2020-09-11T14:50:09Z</time>
      </trkpt>
      <trkpt lat="49.61739" lon="4.97167">
        <ele>252</ele>
        <time>2020-09-11T14:50:28Z</time>
      </trkpt>
      <trkpt lat="49.61746" lon="4.97157">
        <ele>250.08</ele>
        <time>2020-09-11T14:50:40Z</time>
      </trkpt>
      <trkpt lat="49.61756" lon="4.97176">
        <ele>249.12</ele>
        <time>2020-09-11T14:50:56Z</time>
      </trkpt>
      <trkpt lat="49.61762" lon="4.97195">
        <ele>252.96</ele>
        <time>2020-09-11T14:51:10Z</time>
      </trkpt>
      <trkpt lat="49.61763" lon="4.97202">
        <ele>253.44</ele>
        <time>2020-09-11T14:51:14Z</time>
      </trkpt>
      <trkpt lat="49.61766" lon="4.97213">
        <ele>254.41</ele>
        <time>2020-09-11T14:51:19Z</time>
      </trkpt>
      <trkpt lat="49.61772" lon="4.97237">
        <ele>257.77</ele>
        <time>2020-09-11T14:51:35Z</time>
      </trkpt>
      <trkpt lat="49.61778" lon="4.97255">
        <ele>258.73</ele>
        <time>2020-09-11T14:51:48Z</time>
      </trkpt>
      <trkpt lat="49.61784" lon="4.97275">
        <ele>259.21</ele>
        <time>2020-09-11T14:52:00Z</time>
      </trkpt>
      <trkpt lat="49.61789" lon="4.97293">
        <ele>257.77</ele>
        <time>2020-09-11T14:52:13Z</time>
      </trkpt>
      <trkpt lat="49.61795" lon="4.97313">
        <ele>258.73</ele>
        <time>2020-09-11T14:52:26Z</time>
      </trkpt>
      <trkpt lat="49.61801" lon="4.97335">
        <ele>258.25</ele>
        <time>2020-09-11T14:52:40Z</time>
      </trkpt>
      <trkpt lat="49.61806" lon="4.97353">
        <ele>259.21</ele>
        <time>2020-09-11T14:52:53Z</time>
      </trkpt>
      <trkpt lat="49.6181" lon="4.97372">
        <ele>260.65</ele>
        <time>2020-09-11T14:53:07Z</time>
      </trkpt>
      <trkpt lat="49.61812" lon="4.97385">
        <ele>261.14</ele>
        <time>2020-09-11T14:53:20Z</time>
      </trkpt>
      <trkpt lat="49.61818" lon="4.97405">
        <ele>263.54</ele>
        <time>2020-09-11T14:53:33Z</time>
      </trkpt>
      <trkpt lat="49.61828" lon="4.97422">
        <ele>264.02</ele>
        <time>2020-09-11T14:53:47Z</time>
      </trkpt>
      <trkpt lat="49.61842" lon="4.97439">
        <ele>264.5</ele>
        <time>2020-09-11T14:54:04Z</time>
      </trkpt>
      <trkpt lat="49.61854" lon="4.97456">
        <ele>266.9</ele>
        <time>2020-09-11T14:54:18Z</time>
      </trkpt>
      <trkpt lat="49.61865" lon="4.97471">
        <ele>268.35</ele>
        <time>2020-09-11T14:54:31Z</time>
      </trkpt>
      <trkpt lat="49.61877" lon="4.97487">
        <ele>270.27</ele>
        <time>2020-09-11T14:54:44Z</time>
      </trkpt>
      <trkpt lat="49.61886" lon="4.97497">
        <ele>272.67</ele>
        <time>2020-09-11T14:54:56Z</time>
      </trkpt>
      <trkpt lat="49.61893" lon="4.97502">
        <ele>273.63</ele>
        <time>2020-09-11T14:55:16Z</time>
      </trkpt>
      <trkpt lat="49.61906" lon="4.97507">
        <ele>275.07</ele>
        <time>2020-09-11T14:55:28Z</time>
      </trkpt>
      <trkpt lat="49.61921" lon="4.97506">
        <ele>276.04</ele>
        <time>2020-09-11T14:55:42Z</time>
      </trkpt>
      <trkpt lat="49.61937" lon="4.97506">
        <ele>277</ele>
        <time>2020-09-11T14:55:56Z</time>
      </trkpt>
      <trkpt lat="49.61952" lon="4.97505">
        <ele>277.96</ele>
        <time>2020-09-11T14:56:10Z</time>
      </trkpt>
      <trkpt lat="49.61968" lon="4.97504">
        <ele>278.44</ele>
        <time>2020-09-11T14:56:25Z</time>
      </trkpt>
      <trkpt lat="49.61983" lon="4.97503">
        <ele>279.4</ele>
        <time>2020-09-11T14:56:40Z</time>
      </trkpt>
      <trkpt lat="49.61999" lon="4.97503">
        <ele>279.4</ele>
        <time>2020-09-11T14:56:54Z</time>
      </trkpt>
      <trkpt lat="49.62013" lon="4.97503">
        <ele>279.4</ele>
        <time>2020-09-11T14:57:08Z</time>
      </trkpt>
      <trkpt lat="49.62029" lon="4.97506">
        <ele>279.4</ele>
        <time>2020-09-11T14:57:24Z</time>
      </trkpt>
      <trkpt lat="49.62034" lon="4.97513">
        <ele>279.4</ele>
        <time>2020-09-11T14:57:29Z</time>
      </trkpt>
      <trkpt lat="49.62036" lon="4.97523">
        <ele>278.44</ele>
        <time>2020-09-11T14:57:37Z</time>
      </trkpt>
      <trkpt lat="49.62035" lon="4.97546">
        <ele>278.44</ele>
        <time>2020-09-11T14:57:51Z</time>
      </trkpt>
      <trkpt lat="49.62034" lon="4.97556">
        <ele>278.92</ele>
        <time>2020-09-11T14:58:03Z</time>
      </trkpt>
      <trkpt lat="49.62033" lon="4.97582">
        <ele>277</ele>
        <time>2020-09-11T14:58:20Z</time>
      </trkpt>
      <trkpt lat="49.62032" lon="4.97614">
        <ele>276.52</ele>
        <time>2020-09-11T14:58:39Z</time>
      </trkpt>
      <trkpt lat="49.62031" lon="4.97638">
        <ele>277</ele>
        <time>2020-09-11T14:58:53Z</time>
      </trkpt>
      <trkpt lat="49.62029" lon="4.97646">
        <ele>276.52</ele>
        <time>2020-09-11T14:58:59Z</time>
      </trkpt>
      <trkpt lat="49.62029" lon="4.97651">
        <ele>276.52</ele>
        <time>2020-09-11T14:59:02Z</time>
      </trkpt>
      <trkpt lat="49.62025" lon="4.97681">
        <ele>277.48</ele>
        <time>2020-09-11T14:59:20Z</time>
      </trkpt>
      <trkpt lat="49.6202" lon="4.97708">
        <ele>276.52</ele>
        <time>2020-09-11T14:59:37Z</time>
      </trkpt>
      <trkpt lat="49.62017" lon="4.9773">
        <ele>276.52</ele>
        <time>2020-09-11T14:59:51Z</time>
      </trkpt>
      <trkpt lat="49.62012" lon="4.97757">
        <ele>275.07</ele>
        <time>2020-09-11T15:00:07Z</time>
      </trkpt>
      <trkpt lat="49.62007" lon="4.97784">
        <ele>277.96</ele>
        <time>2020-09-11T15:00:23Z</time>
      </trkpt>
      <trkpt lat="49.62001" lon="4.97812">
        <ele>278.92</ele>
        <time>2020-09-11T15:00:42Z</time>
      </trkpt>
      <trkpt lat="49.61993" lon="4.97845">
        <ele>281.32</ele>
        <time>2020-09-11T15:01:03Z</time>
      </trkpt>
      <trkpt lat="49.61983" lon="4.9787">
        <ele>281.32</ele>
        <time>2020-09-11T15:01:21Z</time>
      </trkpt>
      <trkpt lat="49.61972" lon="4.97896">
        <ele>282.77</ele>
        <time>2020-09-11T15:01:39Z</time>
      </trkpt>
      <trkpt lat="49.61964" lon="4.9791">
        <ele>281.8</ele>
        <time>2020-09-11T15:01:52Z</time>
      </trkpt>
      <trkpt lat="49.61952" lon="4.9793">
        <ele>282.28</ele>
        <time>2020-09-11T15:02:08Z</time>
      </trkpt>
      <trkpt lat="49.61934" lon="4.97951">
        <ele>282.28</ele>
        <time>2020-09-11T15:02:27Z</time>
      </trkpt>
      <trkpt lat="49.61921" lon="4.9797">
        <ele>280.84</ele>
        <time>2020-09-11T15:02:45Z</time>
      </trkpt>
      <trkpt lat="49.6191" lon="4.97984">
        <ele>282.77</ele>
        <time>2020-09-11T15:03:00Z</time>
      </trkpt>
      <trkpt lat="49.61899" lon="4.98002">
        <ele>286.13</ele>
        <time>2020-09-11T15:03:15Z</time>
      </trkpt>
      <trkpt lat="49.61887" lon="4.98024">
        <ele>289.01</ele>
        <time>2020-09-11T15:03:32Z</time>
      </trkpt>
      <trkpt lat="49.61882" lon="4.98035">
        <ele>289.97</ele>
        <time>2020-09-11T15:03:41Z</time>
      </trkpt>
      <trkpt lat="49.61881" lon="4.98038">
        <ele>290.46</ele>
        <time>2020-09-11T15:03:43Z</time>
      </trkpt>
      <trkpt lat="49.61874" lon="4.98052">
        <ele>291.42</ele>
        <time>2020-09-11T15:03:54Z</time>
      </trkpt>
      <trkpt lat="49.61872" lon="4.98055">
        <ele>291.9</ele>
        <time>2020-09-11T15:03:56Z</time>
      </trkpt>
      <trkpt lat="49.61865" lon="4.98076">
        <ele>292.86</ele>
        <time>2020-09-11T15:04:10Z</time>
      </trkpt>
      <trkpt lat="49.61861" lon="4.98086">
        <ele>294.3</ele>
        <time>2020-09-11T15:04:19Z</time>
      </trkpt>
      <trkpt lat="49.6185" lon="4.98109">
        <ele>296.22</ele>
        <time>2020-09-11T15:04:36Z</time>
      </trkpt>
      <trkpt lat="49.61847" lon="4.98116">
        <ele>297.67</ele>
        <time>2020-09-11T15:04:43Z</time>
      </trkpt>
      <trkpt lat="49.61845" lon="4.9812">
        <ele>297.67</ele>
        <time>2020-09-11T15:04:46Z</time>
      </trkpt>
      <trkpt lat="49.61838" lon="4.98139">
        <ele>297.18</ele>
        <time>2020-09-11T15:04:58Z</time>
      </trkpt>
      <trkpt lat="49.61836" lon="4.98147">
        <ele>296.7</ele>
        <time>2020-09-11T15:05:03Z</time>
      </trkpt>
      <trkpt lat="49.61833" lon="4.98152">
        <ele>296.22</ele>
        <time>2020-09-11T15:05:07Z</time>
      </trkpt>
      <trkpt lat="49.6183" lon="4.98162">
        <ele>296.22</ele>
        <time>2020-09-11T15:05:14Z</time>
      </trkpt>
      <trkpt lat="49.61829" lon="4.98165">
        <ele>295.74</ele>
        <time>2020-09-11T15:05:16Z</time>
      </trkpt>
      <trkpt lat="49.6183" lon="4.9817">
        <ele>295.26</ele>
        <time>2020-09-11T15:05:18Z</time>
      </trkpt>
      <trkpt lat="49.61834" lon="4.98176">
        <ele>294.78</ele>
        <time>2020-09-11T15:05:22Z</time>
      </trkpt>
      <trkpt lat="49.61836" lon="4.98179">
        <ele>295.74</ele>
        <time>2020-09-11T15:05:24Z</time>
      </trkpt>
      <trkpt lat="49.6184" lon="4.98178">
        <ele>294.3</ele>
        <time>2020-09-11T15:05:39Z</time>
      </trkpt>
      <trkpt lat="49.61847" lon="4.98174">
        <ele>293.82</ele>
        <time>2020-09-11T15:05:48Z</time>
      </trkpt>
      <trkpt lat="49.61861" lon="4.9817">
        <ele>294.3</ele>
        <time>2020-09-11T15:06:06Z</time>
      </trkpt>
      <trkpt lat="49.61876" lon="4.98164">
        <ele>291.42</ele>
        <time>2020-09-11T15:06:25Z</time>
      </trkpt>
      <trkpt lat="49.61877" lon="4.98164">
        <ele>291.9</ele>
        <time>2020-09-11T15:06:26Z</time>
      </trkpt>
      <trkpt lat="49.61891" lon="4.98165">
        <ele>291.9</ele>
        <time>2020-09-11T15:06:43Z</time>
      </trkpt>
      <trkpt lat="49.61905" lon="4.98167">
        <ele>291.42</ele>
        <time>2020-09-11T15:06:58Z</time>
      </trkpt>
      <trkpt lat="49.6192" lon="4.98171">
        <ele>289.97</ele>
        <time>2020-09-11T15:07:14Z</time>
      </trkpt>
      <trkpt lat="49.61938" lon="4.98177">
        <ele>289.49</ele>
        <time>2020-09-11T15:07:32Z</time>
      </trkpt>
      <trkpt lat="49.61948" lon="4.98178">
        <ele>289.49</ele>
        <time>2020-09-11T15:07:40Z</time>
      </trkpt>
      <trkpt lat="49.61964" lon="4.9818">
        <ele>286.61</ele>
        <time>2020-09-11T15:07:56Z</time>
      </trkpt>
      <trkpt lat="49.61982" lon="4.98188">
        <ele>286.61</ele>
        <time>2020-09-11T15:08:15Z</time>
      </trkpt>
      <trkpt lat="49.61993" lon="4.98193">
        <ele>286.61</ele>
        <time>2020-09-11T15:08:27Z</time>
      </trkpt>
      <trkpt lat="49.62007" lon="4.98199">
        <ele>286.13</ele>
        <time>2020-09-11T15:08:44Z</time>
      </trkpt>
      <trkpt lat="49.62021" lon="4.98206">
        <ele>283.73</ele>
        <time>2020-09-11T15:08:57Z</time>
      </trkpt>
      <trkpt lat="49.6204" lon="4.98212">
        <ele>281.32</ele>
        <time>2020-09-11T15:09:12Z</time>
      </trkpt>
      <trkpt lat="49.62049" lon="4.98215">
        <ele>279.4</ele>
        <time>2020-09-11T15:09:28Z</time>
      </trkpt>
      <trkpt lat="49.6206" lon="4.98224">
        <ele>278.44</ele>
        <time>2020-09-11T15:09:42Z</time>
      </trkpt>
      <trkpt lat="49.62077" lon="4.98232">
        <ele>276.52</ele>
        <time>2020-09-11T15:10:00Z</time>
      </trkpt>
      <trkpt lat="49.62097" lon="4.98244">
        <ele>275.56</ele>
        <time>2020-09-11T15:10:16Z</time>
      </trkpt>
      <trkpt lat="49.62109" lon="4.98252">
        <ele>275.56</ele>
        <time>2020-09-11T15:10:32Z</time>
      </trkpt>
      <trkpt lat="49.62127" lon="4.98268">
        <ele>274.59</ele>
        <time>2020-09-11T15:10:52Z</time>
      </trkpt>
      <trkpt lat="49.62145" lon="4.98279">
        <ele>273.15</ele>
        <time>2020-09-11T15:11:08Z</time>
      </trkpt>
      <trkpt lat="49.62159" lon="4.98286">
        <ele>272.19</ele>
        <time>2020-09-11T15:11:24Z</time>
      </trkpt>
      <trkpt lat="49.62173" lon="4.9829">
        <ele>270.75</ele>
        <time>2020-09-11T15:11:41Z</time>
      </trkpt>
      <trkpt lat="49.62188" lon="4.98298">
        <ele>272.19</ele>
        <time>2020-09-11T15:11:57Z</time>
      </trkpt>
      <trkpt lat="49.62205" lon="4.98306">
        <ele>273.15</ele>
        <time>2020-09-11T15:12:17Z</time>
      </trkpt>
      <trkpt lat="49.62215" lon="4.9831">
        <ele>274.11</ele>
        <time>2020-09-11T15:12:28Z</time>
      </trkpt>
      <trkpt lat="49.6223" lon="4.98318">
        <ele>274.11</ele>
        <time>2020-09-11T15:12:42Z</time>
      </trkpt>
      <trkpt lat="49.62245" lon="4.98327">
        <ele>272.19</ele>
        <time>2020-09-11T15:12:57Z</time>
      </trkpt>
      <trkpt lat="49.6225" lon="4.98334">
        <ele>271.23</ele>
        <time>2020-09-11T15:13:02Z</time>
      </trkpt>
      <trkpt lat="49.62253" lon="4.98339">
        <ele>270.27</ele>
        <time>2020-09-11T15:13:06Z</time>
      </trkpt>
      <trkpt lat="49.62256" lon="4.98347">
        <ele>269.31</ele>
        <time>2020-09-11T15:13:11Z</time>
      </trkpt>
      <trkpt lat="49.62271" lon="4.98362">
        <ele>271.23</ele>
        <time>2020-09-11T15:13:28Z</time>
      </trkpt>
      <trkpt lat="49.62276" lon="4.98369">
        <ele>271.23</ele>
        <time>2020-09-11T15:13:35Z</time>
      </trkpt>
      <trkpt lat="49.62289" lon="4.98386">
        <ele>269.31</ele>
        <time>2020-09-11T15:13:51Z</time>
      </trkpt>
      <trkpt lat="49.623" lon="4.984">
        <ele>266.42</ele>
        <time>2020-09-11T15:14:04Z</time>
      </trkpt>
      <trkpt lat="49.62304" lon="4.98408">
        <ele>265.94</ele>
        <time>2020-09-11T15:14:10Z</time>
      </trkpt>
      <trkpt lat="49.6231" lon="4.98419">
        <ele>267.86</ele>
        <time>2020-09-11T15:14:18Z</time>
      </trkpt>
      <trkpt lat="49.62323" lon="4.98436">
        <ele>273.63</ele>
        <time>2020-09-11T15:14:36Z</time>
      </trkpt>
      <trkpt lat="49.62336" lon="4.9845">
        <ele>274.11</ele>
        <time>2020-09-11T15:14:51Z</time>
      </trkpt>
      <trkpt lat="49.62352" lon="4.98459">
        <ele>271.23</ele>
        <time>2020-09-11T15:15:07Z</time>
      </trkpt>
      <trkpt lat="49.62368" lon="4.98468">
        <ele>267.38</ele>
        <time>2020-09-11T15:15:23Z</time>
      </trkpt>
      <trkpt lat="49.62385" lon="4.98474">
        <ele>261.62</ele>
        <time>2020-09-11T15:15:40Z</time>
      </trkpt>
      <trkpt lat="49.62404" lon="4.98488">
        <ele>257.77</ele>
        <time>2020-09-11T15:15:58Z</time>
      </trkpt>
      <trkpt lat="49.62418" lon="4.98497">
        <ele>253.93</ele>
        <time>2020-09-11T15:16:14Z</time>
      </trkpt>
      <trkpt lat="49.62433" lon="4.98508">
        <ele>252.96</ele>
        <time>2020-09-11T15:16:31Z</time>
      </trkpt>
      <trkpt lat="49.62452" lon="4.98522">
        <ele>254.41</ele>
        <time>2020-09-11T15:16:47Z</time>
      </trkpt>
      <trkpt lat="49.62469" lon="4.98534">
        <ele>255.37</ele>
        <time>2020-09-11T15:17:06Z</time>
      </trkpt>
      <trkpt lat="49.62483" lon="4.98548">
        <ele>257.77</ele>
        <time>2020-09-11T15:17:22Z</time>
      </trkpt>
      <trkpt lat="49.62501" lon="4.98559">
        <ele>257.77</ele>
        <time>2020-09-11T15:17:37Z</time>
      </trkpt>
      <trkpt lat="49.62516" lon="4.98563">
        <ele>255.85</ele>
        <time>2020-09-11T15:17:54Z</time>
      </trkpt>
      <trkpt lat="49.62525" lon="4.98561">
        <ele>256.81</ele>
        <time>2020-09-11T15:18:03Z</time>
      </trkpt>
      <trkpt lat="49.62543" lon="4.98558">
        <ele>256.33</ele>
        <time>2020-09-11T15:18:17Z</time>
      </trkpt>
      <trkpt lat="49.62549" lon="4.98562">
        <ele>255.85</ele>
        <time>2020-09-11T15:18:26Z</time>
      </trkpt>
      <trkpt lat="49.62551" lon="4.98573">
        <ele>256.81</ele>
        <time>2020-09-11T15:18:34Z</time>
      </trkpt>
      <trkpt lat="49.62556" lon="4.98585">
        <ele>257.77</ele>
        <time>2020-09-11T15:18:47Z</time>
      </trkpt>
      <trkpt lat="49.62559" lon="4.98584">
        <ele>257.77</ele>
        <time>2020-09-11T15:19:02Z</time>
      </trkpt>
      <trkpt lat="49.62576" lon="4.98571">
        <ele>257.77</ele>
        <time>2020-09-11T15:19:17Z</time>
      </trkpt>
      <trkpt lat="49.6259" lon="4.98562">
        <ele>257.29</ele>
        <time>2020-09-11T15:19:32Z</time>
      </trkpt>
      <trkpt lat="49.62609" lon="4.98547">
        <ele>257.29</ele>
        <time>2020-09-11T15:19:53Z</time>
      </trkpt>
      <trkpt lat="49.62624" lon="4.98534">
        <ele>258.25</ele>
        <time>2020-09-11T15:20:09Z</time>
      </trkpt>
      <trkpt lat="49.62637" lon="4.98523">
        <ele>260.17</ele>
        <time>2020-09-11T15:20:24Z</time>
      </trkpt>
      <trkpt lat="49.62649" lon="4.98513">
        <ele>261.14</ele>
        <time>2020-09-11T15:20:38Z</time>
      </trkpt>
      <trkpt lat="49.62663" lon="4.98502">
        <ele>261.14</ele>
        <time>2020-09-11T15:20:53Z</time>
      </trkpt>
      <trkpt lat="49.62679" lon="4.98488">
        <ele>259.69</ele>
        <time>2020-09-11T15:21:11Z</time>
      </trkpt>
      <trkpt lat="49.62692" lon="4.98476">
        <ele>256.81</ele>
        <time>2020-09-11T15:21:26Z</time>
      </trkpt>
      <trkpt lat="49.62708" lon="4.98462">
        <ele>256.81</ele>
        <time>2020-09-11T15:21:42Z</time>
      </trkpt>
      <trkpt lat="49.62722" lon="4.98453">
        <ele>258.25</ele>
        <time>2020-09-11T15:21:56Z</time>
      </trkpt>
      <trkpt lat="49.62737" lon="4.98441">
        <ele>257.29</ele>
        <time>2020-09-11T15:22:13Z</time>
      </trkpt>
      <trkpt lat="49.62748" lon="4.98429">
        <ele>254.89</ele>
        <time>2020-09-11T15:22:28Z</time>
      </trkpt>
      <trkpt lat="49.6276" lon="4.9842">
        <ele>253.93</ele>
        <time>2020-09-11T15:22:41Z</time>
      </trkpt>
      <trkpt lat="49.62773" lon="4.9841">
        <ele>249.6</ele>
        <time>2020-09-11T15:22:56Z</time>
      </trkpt>
      <trkpt lat="49.62788" lon="4.98399">
        <ele>248.16</ele>
        <time>2020-09-11T15:23:12Z</time>
      </trkpt>
      <trkpt lat="49.62802" lon="4.98389">
        <ele>247.68</ele>
        <time>2020-09-11T15:23:28Z</time>
      </trkpt>
      <trkpt lat="49.62815" lon="4.98376">
        <ele>249.12</ele>
        <time>2020-09-11T15:23:44Z</time>
      </trkpt>
      <trkpt lat="49.62829" lon="4.98366">
        <ele>247.68</ele>
        <time>2020-09-11T15:23:59Z</time>
      </trkpt>
      <trkpt lat="49.62841" lon="4.98356">
        <ele>242.87</ele>
        <time>2020-09-11T15:24:15Z</time>
      </trkpt>
      <trkpt lat="49.62855" lon="4.98349">
        <ele>239.99</ele>
        <time>2020-09-11T15:24:32Z</time>
      </trkpt>
      <trkpt lat="49.62868" lon="4.98345">
        <ele>239.02</ele>
        <time>2020-09-11T15:24:48Z</time>
      </trkpt>
      <trkpt lat="49.6288" lon="4.98339">
        <ele>236.14</ele>
        <time>2020-09-11T15:25:01Z</time>
      </trkpt>
      <trkpt lat="49.62894" lon="4.98336">
        <ele>235.66</ele>
        <time>2020-09-11T15:25:15Z</time>
      </trkpt>
      <trkpt lat="49.62906" lon="4.98333">
        <ele>234.7</ele>
        <time>2020-09-11T15:25:29Z</time>
      </trkpt>
      <trkpt lat="49.6292" lon="4.98329">
        <ele>234.22</ele>
        <time>2020-09-11T15:25:44Z</time>
      </trkpt>
      <trkpt lat="49.62933" lon="4.98323">
        <ele>233.74</ele>
        <time>2020-09-11T15:25:58Z</time>
      </trkpt>
      <trkpt lat="49.62939" lon="4.98319">
        <ele>233.26</ele>
        <time>2020-09-11T15:26:04Z</time>
      </trkpt>
      <trkpt lat="49.62954" lon="4.98322">
        <ele>231.81</ele>
        <time>2020-09-11T15:26:19Z</time>
      </trkpt>
      <trkpt lat="49.62968" lon="4.98321">
        <ele>230.85</ele>
        <time>2020-09-11T15:26:35Z</time>
      </trkpt>
      <trkpt lat="49.62988" lon="4.98323">
        <ele>227.01</ele>
        <time>2020-09-11T15:26:53Z</time>
      </trkpt>
      <trkpt lat="49.63" lon="4.98323">
        <ele>226.05</ele>
        <time>2020-09-11T15:27:06Z</time>
      </trkpt>
      <trkpt lat="49.63011" lon="4.98324">
        <ele>225.57</ele>
        <time>2020-09-11T15:27:20Z</time>
      </trkpt>
      <trkpt lat="49.6302" lon="4.98324">
        <ele>226.05</ele>
        <time>2020-09-11T15:27:33Z</time>
      </trkpt>
      <trkpt lat="49.6303" lon="4.98324">
        <ele>224.12</ele>
        <time>2020-09-11T15:27:46Z</time>
      </trkpt>
      <trkpt lat="49.63041" lon="4.98326">
        <ele>222.2</ele>
        <time>2020-09-11T15:27:58Z</time>
      </trkpt>
      <trkpt lat="49.63058" lon="4.98329">
        <ele>220.76</ele>
        <time>2020-09-11T15:28:13Z</time>
      </trkpt>
      <trkpt lat="49.63068" lon="4.9833">
        <ele>219.8</ele>
        <time>2020-09-11T15:28:26Z</time>
      </trkpt>
      <trkpt lat="49.63086" lon="4.98331">
        <ele>217.88</ele>
        <time>2020-09-11T15:28:44Z</time>
      </trkpt>
      <trkpt lat="49.63095" lon="4.98335">
        <ele>217.4</ele>
        <time>2020-09-11T15:28:54Z</time>
      </trkpt>
      <trkpt lat="49.63108" lon="4.9834">
        <ele>214.03</ele>
        <time>2020-09-11T15:29:08Z</time>
      </trkpt>
      <trkpt lat="49.63126" lon="4.9834">
        <ele>214.51</ele>
        <time>2020-09-11T15:29:23Z</time>
      </trkpt>
      <trkpt lat="49.6314" lon="4.98339">
        <ele>211.63</ele>
        <time>2020-09-11T15:29:36Z</time>
      </trkpt>
      <trkpt lat="49.63148" lon="4.98341">
        <ele>210.19</ele>
        <time>2020-09-11T15:29:45Z</time>
      </trkpt>
      <trkpt lat="49.63159" lon="4.98338">
        <ele>209.7</ele>
        <time>2020-09-11T15:29:56Z</time>
      </trkpt>
      <trkpt lat="49.63165" lon="4.98342">
        <ele>208.26</ele>
        <time>2020-09-11T15:30:03Z</time>
      </trkpt>
      <trkpt lat="49.63177" lon="4.9834">
        <ele>209.22</ele>
        <time>2020-09-11T15:30:15Z</time>
      </trkpt>
      <trkpt lat="49.63193" lon="4.98342">
        <ele>208.74</ele>
        <time>2020-09-11T15:30:31Z</time>
      </trkpt>
      <trkpt lat="49.63208" lon="4.9834">
        <ele>209.22</ele>
        <time>2020-09-11T15:30:46Z</time>
      </trkpt>
      <trkpt lat="49.63223" lon="4.98341">
        <ele>209.22</ele>
        <time>2020-09-11T15:31:02Z</time>
      </trkpt>
      <trkpt lat="49.63238" lon="4.98346">
        <ele>209.22</ele>
        <time>2020-09-11T15:31:17Z</time>
      </trkpt>
      <trkpt lat="49.63258" lon="4.9835">
        <ele>208.26</ele>
        <time>2020-09-11T15:31:35Z</time>
      </trkpt>
      <trkpt lat="49.63273" lon="4.98351">
        <ele>206.82</ele>
        <time>2020-09-11T15:31:50Z</time>
      </trkpt>
      <trkpt lat="49.63285" lon="4.9835">
        <ele>207.3</ele>
        <time>2020-09-11T15:32:03Z</time>
      </trkpt>
      <trkpt lat="49.63299" lon="4.98349">
        <ele>206.82</ele>
        <time>2020-09-11T15:32:18Z</time>
      </trkpt>
      <trkpt lat="49.6331" lon="4.9835">
        <ele>206.82</ele>
        <time>2020-09-11T15:32:30Z</time>
      </trkpt>
      <trkpt lat="49.63324" lon="4.98351">
        <ele>207.78</ele>
        <time>2020-09-11T15:32:43Z</time>
      </trkpt>
      <trkpt lat="49.63338" lon="4.9835">
        <ele>207.3</ele>
        <time>2020-09-11T15:33:00Z</time>
      </trkpt>
      <trkpt lat="49.63351" lon="4.98345">
        <ele>205.38</ele>
        <time>2020-09-11T15:33:15Z</time>
      </trkpt>
      <trkpt lat="49.63364" lon="4.9834">
        <ele>201.53</ele>
        <time>2020-09-11T15:33:30Z</time>
      </trkpt>
      <trkpt lat="49.63365" lon="4.9834">
        <ele>201.53</ele>
        <time>2020-09-11T15:33:31Z</time>
      </trkpt>
      <trkpt lat="49.63376" lon="4.98331">
        <ele>201.05</ele>
        <time>2020-09-11T15:33:45Z</time>
      </trkpt>
      <trkpt lat="49.63389" lon="4.98324">
        <ele>200.09</ele>
        <time>2020-09-11T15:33:59Z</time>
      </trkpt>
      <trkpt lat="49.63399" lon="4.98313">
        <ele>199.13</ele>
        <time>2020-09-11T15:34:13Z</time>
      </trkpt>
      <trkpt lat="49.63411" lon="4.98302">
        <ele>198.65</ele>
        <time>2020-09-11T15:34:28Z</time>
      </trkpt>
      <trkpt lat="49.63424" lon="4.98287">
        <ele>197.21</ele>
        <time>2020-09-11T15:34:45Z</time>
      </trkpt>
      <trkpt lat="49.63431" lon="4.98273">
        <ele>194.8</ele>
        <time>2020-09-11T15:34:58Z</time>
      </trkpt>
      <trkpt lat="49.6344" lon="4.98262">
        <ele>192.4</ele>
        <time>2020-09-11T15:35:11Z</time>
      </trkpt>
      <trkpt lat="49.6345" lon="4.98248">
        <ele>188.08</ele>
        <time>2020-09-11T15:35:25Z</time>
      </trkpt>
      <trkpt lat="49.63455" lon="4.98237">
        <ele>187.59</ele>
        <time>2020-09-11T15:35:42Z</time>
      </trkpt>
      <trkpt lat="49.63457" lon="4.98233">
        <ele>186.63</ele>
        <time>2020-09-11T15:35:45Z</time>
      </trkpt>
      <trkpt lat="49.63462" lon="4.98221">
        <ele>186.15</ele>
        <time>2020-09-11T15:36:00Z</time>
      </trkpt>
      <trkpt lat="49.6347" lon="4.98203">
        <ele>184.23</ele>
        <time>2020-09-11T15:36:14Z</time>
      </trkpt>
      <trkpt lat="49.63477" lon="4.98186">
        <ele>182.31</ele>
        <time>2020-09-11T15:36:29Z</time>
      </trkpt>
      <trkpt lat="49.63481" lon="4.98167">
        <ele>179.9</ele>
        <time>2020-09-11T15:36:44Z</time>
      </trkpt>
      <trkpt lat="49.63488" lon="4.98148">
        <ele>178.46</ele>
        <time>2020-09-11T15:36:59Z</time>
      </trkpt>
      <trkpt lat="49.63492" lon="4.98129">
        <ele>179.9</ele>
        <time>2020-09-11T15:37:14Z</time>
      </trkpt>
      <trkpt lat="49.6349" lon="4.98122">
        <ele>182.31</ele>
        <time>2020-09-11T15:37:19Z</time>
      </trkpt>
      <trkpt lat="49.63482" lon="4.98111">
        <ele>187.11</ele>
        <time>2020-09-11T15:37:32Z</time>
      </trkpt>
      <trkpt lat="49.63473" lon="4.98099">
        <ele>186.63</ele>
        <time>2020-09-11T15:37:46Z</time>
      </trkpt>
      <trkpt lat="49.63462" lon="4.98077">
        <ele>186.63</ele>
        <time>2020-09-11T15:38:03Z</time>
      </trkpt>
      <trkpt lat="49.63457" lon="4.98058">
        <ele>187.11</ele>
        <time>2020-09-11T15:38:19Z</time>
      </trkpt>
      <trkpt lat="49.63456" lon="4.98056">
        <ele>187.11</ele>
        <time>2020-09-11T15:38:33Z</time>
      </trkpt>
      <trkpt lat="49.63455" lon="4.98049">
        <ele>182.79</ele>
        <time>2020-09-11T15:38:40Z</time>
      </trkpt>
      <trkpt lat="49.63455" lon="4.98018">
        <ele>187.11</ele>
        <time>2020-09-11T17:46:56Z</time>
      </trkpt>
      <trkpt lat="49.63441" lon="4.98002">
        <ele>204.42</ele>
        <time>2020-09-11T17:47:19Z</time>
      </trkpt>
      <trkpt lat="49.63429" lon="4.97981">
        <ele>226.05</ele>
        <time>2020-09-11T17:47:48Z</time>
      </trkpt>
      <trkpt lat="49.6341" lon="4.97955">
        <ele>254.41</ele>
        <time>2020-09-11T17:48:22Z</time>
      </trkpt>
    </trkseg>
  </trk>
</gpx>